Wetterdaten: Samstag, 26.07.2014
Datum Zeit Temp. Aussen +5cm Feuchte Auss Luftdruck Regen Sonnenschein Regendauer UV Solar Windben
26.07.2014 00:00 17,3 C 16,1 C 93 % 1013,1 hPa 0,0 l/m 0 min 0 min 0,0 UV-I 0 W/m 0,0 km/h (0 Bft)
26.07.2014 00:02 17,3 C 16,1 C 93 % 1013,1 hPa 0,0 l/m 0 min 0 min 0,0 UV-I 0 W/m 2,1 km/h (1 Bft)
26.07.2014 00:05 17,2 C 16,1 C 93 % 1013,1 hPa 0,0 l/m 0 min 0 min 0,0 UV-I 0 W/m 0,0 km/h (0 Bft)
26.07.2014 00:06 17,2 C 16,1 C 93 % 1013,1 hPa 0,0 l/m 0 min 0 min 0,0 UV-I 0 W/m 6,3 km/h (2 Bft)
26.07.2014 00:08 17,2 C 16,1 C 93 % 1013,1 hPa 0,0 l/m 0 min 0 min 0,0 UV-I 0 W/m 6,3 km/h (2 Bft)
26.07.2014 00:10 17,2 C 16,1 C 93 % 1013,1 hPa 0,0 l/m 0 min 0 min 0,0 UV-I 0 W/m 8,4 km/h (2 Bft)
26.07.2014 00:12 17,1 C 16,1 C 94 % 1013,1 hPa 0,0 l/m 0 min 0 min 0,0 UV-I 0 W/m 0,0 km/h (0 Bft)
26.07.2014 00:14 17,1 C 16,1 C 94 % 1013,1 hPa 0,0 l/m 0 min 0 min 0,0 UV-I 0 W/m 8,4 km/h (2 Bft)
26.07.2014 00:16 17,1 C 16,1 C 94 % 1013,1 hPa 0,0 l/m 0 min 0 min 0,0 UV-I 0 W/m 8,4 km/h (2 Bft)
26.07.2014 00:18 17,0 C 16,1 C 94 % 1013,2 hPa 0,0 l/m 0 min 0 min 0,0 UV-I 0 W/m 0,0 km/h (0 Bft)
26.07.2014 00:20 17,0 C 16,1 C 94 % 1013,1 hPa 0,0 l/m 0 min 0 min 0,0 UV-I 0 W/m 8,4 km/h (2 Bft)
26.07.2014 00:22 17,0 C 15,6 C 94 % 1013,1 hPa 0,0 l/m 0 min 0 min 0,0 UV-I 0 W/m 6,3 km/h (2 Bft)
26.07.2014 00:24 17,0 C 15,6 C 94 % 1013,1 hPa 0,0 l/m 0 min 0 min 0,0 UV-I 0 W/m 6,3 km/h (2 Bft)
26.07.2014 00:26 17,0 C 15,6 C 94 % 1013,1 hPa 0,0 l/m 0 min 0 min 0,0 UV-I 0 W/m 8,4 km/h (2 Bft)
26.07.2014 00:28 16,9 C 16,1 C 94 % 1013,1 hPa 0,0 l/m 0 min 0 min 0,0 UV-I 0 W/m 6,3 km/h (2 Bft)
26.07.2014 00:30 17,0 C 15,6 C 94 % 1013,1 hPa 0,0 l/m 0 min 0 min 0,0 UV-I 0 W/m 0,0 km/h (0 Bft)
26.07.2014 00:32 16,9 C 15,6 C 94 % 1013,1 hPa 0,0 l/m 0 min 0 min 0,0 UV-I 0 W/m 0,0 km/h (0 Bft)
26.07.2014 00:34 16,9 C 15,6 C 94 % 1013,1 hPa 0,0 l/m 0 min 0 min 0,0 UV-I 0 W/m 0,0 km/h (0 Bft)
26.07.2014 00:36 16,9 C 15,6 C 94 % 1013,2 hPa 0,0 l/m 0 min 0 min 0,0 UV-I 0 W/m 2,1 km/h (1 Bft)
26.07.2014 00:38 16,9 C 15,6 C 94 % 1013,2 hPa 0,0 l/m 0 min 0 min 0,0 UV-I 0 W/m 0,0 km/h (0 Bft)
26.07.2014 00:40 16,8 C 15,6 C 95 % 1013,2 hPa 0,0 l/m 0 min 0 min 0,0 UV-I 0 W/m 0,0 km/h (0 Bft)
26.07.2014 00:42 16,8 C 15,6 C 95 % 1013,2 hPa 0,0 l/m 0 min 0 min 0,0 UV-I 0 W/m 0,0 km/h (0 Bft)
26.07.2014 00:44 16,8 C 15,6 C 95 % 1013,2 hPa 0,0 l/m 0 min 0 min 0,0 UV-I 0 W/m 0,0 km/h (0 Bft)
26.07.2014 00:46 16,8 C 15,6 C 95 % 1013,2 hPa 0,0 l/m 0 min 0 min 0,0 UV-I 0 W/m 0,0 km/h (0 Bft)
26.07.2014 00:48 16,7 C 15,6 C 95 % 1013,2 hPa 0,0 l/m 0 min 0 min 0,0 UV-I 0 W/m 2,1 km/h (1 Bft)
26.07.2014 00:50 16,7 C 15,6 C 95 % 1013,1 hPa 0,0 l/m 0 min 0 min 0,0 UV-I 0 W/m 0,0 km/h (0 Bft)
26.07.2014 00:52 16,7 C 15,6 C 95 % 1013,2 hPa 0,0 l/m 0 min 0 min 0,0 UV-I 0 W/m 0,0 km/h (0 Bft)
26.07.2014 00:54 16,8 C 15,6 C 95 % 1013,2 hPa 0,0 l/m 0 min 0 min 0,0 UV-I 0 W/m 0,0 km/h (0 Bft)
26.07.2014 00:56 16,8 C 15,6 C 95 % 1013,2 hPa 0,0 l/m 0 min 0 min 0,0 UV-I 0 W/m 0,0 km/h (0 Bft)
26.07.2014 00:58 16,8 C 15,6 C 95 % 1013,2 hPa 0,0 l/m 0 min 0 min 0,0 UV-I 0 W/m 2,1 km/h (1 Bft)
26.07.2014 01:00 16,7 C 15,6 C 95 % 1013,2 hPa 0,0 l/m 0 min 0 min 0,0 UV-I 0 W/m 0,0 km/h (0 Bft)
26.07.2014 01:02 16,7 C 15,6 C 95 % 1013,2 hPa 0,0 l/m 0 min 0 min 0,0 UV-I 0 W/m 0,0 km/h (0 Bft)
26.07.2014 01:04 16,7 C 15,6 C 95 % 1013,2 hPa 0,0 l/m 0 min 0 min 0,0 UV-I 0 W/m 0,0 km/h (0 Bft)
26.07.2014 01:06 16,7 C 15,6 C 95 % 1013,2 hPa 0,0 l/m 0 min 0 min 0,0 UV-I 0 W/m 0,0 km/h (0 Bft)
26.07.2014 01:08 16,7 C 15,6 C 95 % 1013,2 hPa 0,0 l/m 0 min 0 min 0,0 UV-I 0 W/m 2,1 km/h (1 Bft)
26.07.2014 01:10 16,6 C 15,6 C 95 % 1013,2 hPa 0,0 l/m 0 min 0 min 0,0 UV-I 0 W/m 0,0 km/h (0 Bft)
26.07.2014 01:12 16,6 C 15,6 C 96 % 1013,1 hPa 0,0 l/m 0 min 0 min 0,0 UV-I 0 W/m 0,0 km/h (0 Bft)
26.07.2014 01:14 16,6 C 15,0 C 96 % 1013,1 hPa 0,0 l/m 0 min 0 min 0,0 UV-I 0 W/m 0,0 km/h (0 Bft)
26.07.2014 01:16 16,6 C 15,0 C 96 % 1013,1 hPa 0,0 l/m 0 min 0 min 0,0 UV-I 0 W/m 0,0 km/h (0 Bft)
26.07.2014 01:18 16,5 C 15,0 C 96 % 1013,1 hPa 0,0 l/m 0 min 0 min 0,0 UV-I 0 W/m 0,0 km/h (0 Bft)
26.07.2014 01:20 16,5 C 15,0 C 96 % 1013,2 hPa 0,0 l/m 0 min 0 min 0,0 UV-I 0 W/m 0,0 km/h (0 Bft)
26.07.2014 01:22 16,5 C 15,0 C 96 % 1013,2 hPa 0,0 l/m 0 min 0 min 0,0 UV-I 0 W/m 0,0 km/h (0 Bft)
26.07.2014 01:24 16,5 C 15,0 C 96 % 1013,2 hPa 0,0 l/m 0 min 0 min 0,0 UV-I 0 W/m 0,0 km/h (0 Bft)
26.07.2014 01:26 16,4 C 15,0 C 96 % 1013,2 hPa 0,0 l/m 0 min 0 min 0,0 UV-I 0 W/m 0,0 km/h (0 Bft)
26.07.2014 01:28 16,4 C 15,0 C 96 % 1013,2 hPa 0,0 l/m 0 min 0 min 0,0 UV-I 0 W/m 0,0 km/h (0 Bft)
26.07.2014 01:30 16,4 C 15,0 C 96 % 1013,1 hPa 0,0 l/m 0 min 0 min 0,0 UV-I 0 W/m 0,0 km/h (0 Bft)
26.07.2014 01:32 16,3 C 15,0 C 96 % 1013,1 hPa 0,0 l/m 0 min 0 min 0,0 UV-I 0 W/m 0,0 km/h (0 Bft)
26.07.2014 01:34 16,3 C 15,0 C 96 % 1013,2 hPa 0,0 l/m 0 min 0 min 0,0 UV-I 0 W/m 0,0 km/h (0 Bft)
26.07.2014 01:36 16,3 C 15,0 C 96 % 1013,1 hPa 0,0 l/m 0 min 0 min 0,0 UV-I 0 W/m 0,0 km/h (0 Bft)
26.07.2014 01:38 16,2 C 15,0 C 96 % 1013,1 hPa 0,0 l/m 0 min 0 min 0,0 UV-I 0 W/m 0,0 km/h (0 Bft)
26.07.2014 01:40 16,2 C 15,0 C 96 % 1013,1 hPa 0,0 l/m 0 min 0 min 0,0 UV-I 0 W/m 0,0 km/h (0 Bft)
26.07.2014 01:42 16,2 C 15,0 C 96 % 1013,1 hPa 0,0 l/m 0 min 0 min 0,0 UV-I 0 W/m 0,0 km/h (0 Bft)
26.07.2014 01:44 16,2 C 15,0 C 96 % 1013,1 hPa 0,0 l/m 0 min 0 min 0,0 UV-I 0 W/m 0,0 km/h (0 Bft)
26.07.2014 01:46 16,2 C 15,0 C 96 % 1013,1 hPa 0,0 l/m 0 min 0 min 0,0 UV-I 0 W/m 0,0 km/h (0 Bft)
26.07.2014 01:48 16,2 C 15,0 C 96 % 1013,1 hPa 0,0 l/m 0 min 0 min 0,0 UV-I 0 W/m 0,0 km/h (0 Bft)
26.07.2014 01:50 16,2 C 15,0 C 97 % 1013,1 hPa 0,0 l/m 0 min 0 min 0,0 UV-I 0 W/m 0,0 km/h (0 Bft)
26.07.2014 01:52 16,2 C 15,0 C 97 % 1013,1 hPa 0,0 l/m 0 min 0 min 0,0 UV-I 0 W/m 0,0 km/h (0 Bft)
26.07.2014 01:54 16,2 C 15,0 C 97 % 1013,1 hPa 0,0 l/m 0 min 0 min 0,0 UV-I 0 W/m 0,0 km/h (0 Bft)
26.07.2014 01:56 16,2 C 15,0 C 97 % 1013,1 hPa 0,0 l/m 0 min 0 min 0,0 UV-I 0 W/m 0,0 km/h (0 Bft)
26.07.2014 01:58 16,1 C 15,0 C 97 % 1013,1 hPa 0,0 l/m 0 min 0 min 0,0 UV-I 0 W/m 0,0 km/h (0 Bft)
26.07.2014 02:00 16,1 C 15,0 C 97 % 1013,1 hPa 0,0 l/m 0 min 0 min 0,0 UV-I 0 W/m 0,0 km/h (0 Bft)
26.07.2014 02:02 16,1 C 14,4 C 97 % 1013,1 hPa 0,0 l/m 0 min 0 min 0,0 UV-I 0 W/m 0,0 km/h (0 Bft)
26.07.2014 02:04 16,1 C 14,4 C 97 % 1013,1 hPa 0,0 l/m 0 min 0 min 0,0 UV-I 0 W/m 0,0 km/h (0 Bft)
26.07.2014 02:06 16,0 C 14,4 C 97 % 1013,1 hPa 0,0 l/m 0 min 0 min 0,0 UV-I 0 W/m 0,0 km/h (0 Bft)
26.07.2014 02:08 16,0 C 14,4 C 97 % 1013,1 hPa 0,0 l/m 0 min 0 min 0,0 UV-I 0 W/m 0,0 km/h (0 Bft)
26.07.2014 02:10 16,0 C 14,4 C 97 % 1013,1 hPa 0,0 l/m 0 min 0 min 0,0 UV-I 0 W/m 0,0 km/h (0 Bft)
26.07.2014 02:12 16,1 C 15,0 C 97 % 1013,1 hPa 0,0 l/m 0 min 0 min 0,0 UV-I 0 W/m 0,0 km/h (0 Bft)
26.07.2014 02:14 16,1 C 15,0 C 97 % 1013,1 hPa 0,0 l/m 0 min 0 min 0,0 UV-I 0 W/m 0,0 km/h (0 Bft)
26.07.2014 02:16 16,1 C 15,0 C 97 % 1013,0 hPa 0,0 l/m 0 min 0 min 0,0 UV-I 0 W/m 0,0 km/h (0 Bft)
26.07.2014 02:18 16,1 C 15,0 C 97 % 1013,1 hPa 0,0 l/m 0 min 0 min 0,0 UV-I 0 W/m 0,0 km/h (0 Bft)
26.07.2014 02:20 16,1 C 15,0 C 97 % 1013,1 hPa 0,0 l/m 0 min 0 min 0,0 UV-I 0 W/m 0,0 km/h (0 Bft)
26.07.2014 02:22 16,0 C 15,0 C 97 % 1013,1 hPa 0,0 l/m 0 min 0 min 0,0 UV-I 0 W/m 0,0 km/h (0 Bft)
26.07.2014 02:24 16,0 C 14,4 C 97 % 1013,2 hPa 0,0 l/m 0 min 0 min 0,0 UV-I 0 W/m 0,0 km/h (0 Bft)
26.07.2014 02:26 15,9 C 14,4 C 97 % 1013,1 hPa 0,0 l/m 0 min 0 min 0,0 UV-I 0 W/m 0,0 km/h (0 Bft)
26.07.2014 02:28 15,9 C 14,4 C 97 % 1013,1 hPa 0,0 l/m 0 min 0 min 0,0 UV-I 0 W/m 0,0 km/h (0 Bft)
26.07.2014 02:30 15,9 C 14,4 C 97 % 1013,1 hPa 0,0 l/m 0 min 0 min 0,0 UV-I 0 W/m 0,0 km/h (0 Bft)
26.07.2014 02:32 15,9 C 14,4 C 97 % 1013,2 hPa 0,0 l/m 0 min 0 min 0,0 UV-I 0 W/m 0,0 km/h (0 Bft)
26.07.2014 02:34 15,8 C 14,4 C 97 % 1013,1 hPa 0,0 l/m 0 min 0 min 0,0 UV-I 0 W/m 0,0 km/h (0 Bft)
26.07.2014 02:36 15,8 C 14,4 C 97 % 1013,1 hPa 0,0 l/m 0 min 0 min 0,0 UV-I 0 W/m 0,0 km/h (0 Bft)
26.07.2014 02:38 15,7 C 14,4 C 97 % 1013,1 hPa 0,0 l/m 0 min 0 min 0,0 UV-I 0 W/m 0,0 km/h (0 Bft)
26.07.2014 02:40 15,7 C 14,4 C 97 % 1013,1 hPa 0,0 l/m 0 min 0 min 0,0 UV-I 0 W/m 0,0 km/h (0 Bft)
26.07.2014 02:42 15,7 C 14,4 C 97 % 1013,2 hPa 0,0 l/m 0 min 0 min 0,0 UV-I 0 W/m 0,0 km/h (0 Bft)
26.07.2014 02:44 15,7 C 14,4 C 97 % 1013,2 hPa 0,0 l/m 0 min 0 min 0,0 UV-I 0 W/m 2,1 km/h (1 Bft)
26.07.2014 02:46 15,7 C 14,4 C 97 % 1013,1 hPa 0,0 l/m 0 min 0 min 0,0 UV-I 0 W/m 0,0 km/h (0 Bft)
26.07.2014 02:48 15,7 C 14,4 C 97 % 1013,1 hPa 0,0 l/m 0 min 0 min 0,0 UV-I 0 W/m 0,0 km/h (0 Bft)
26.07.2014 02:50 15,7 C 14,4 C 97 % 1013,1 hPa 0,0 l/m 0 min 0 min 0,0 UV-I 0 W/m 0,0 km/h (0 Bft)
26.07.2014 02:52 15,7 C 14,4 C 97 % 1013,1 hPa 0,0 l/m 0 min 0 min 0,0 UV-I 0 W/m 0,0 km/h (0 Bft)
26.07.2014 02:54 15,7 C 14,4 C 97 % 1013,1 hPa 0,0 l/m 0 min 0 min 0,0 UV-I 0 W/m 2,1 km/h (1 Bft)
26.07.2014 02:56 15,7 C 14,4 C 97 % 1013,1 hPa 0,0 l/m 0 min 0 min 0,0 UV-I 0 W/m 0,0 km/h (0 Bft)
26.07.2014 02:58 15,7 C 14,4 C 97 % 1013,1 hPa 0,0 l/m 0 min 0 min 0,0 UV-I 0 W/m 0,0 km/h (0 Bft)
26.07.2014 03:00 15,7 C 14,4 C 97 % 1013,0 hPa 0,0 l/m 0 min 0 min 0,0 UV-I 0 W/m 0,0 km/h (0 Bft)
26.07.2014 03:02 15,7 C 14,4 C 97 % 1013,0 hPa 0,0 l/m 0 min 0 min 0,0 UV-I 0 W/m 0,0 km/h (0 Bft)
26.07.2014 03:04 15,7 C 14,4 C 97 % 1012,9 hPa 0,0 l/m 0 min 0 min 0,0 UV-I 0 W/m 0,0 km/h (0 Bft)
26.07.2014 03:06 15,7 C 14,4 C 97 % 1013,0 hPa 0,0 l/m 0 min 0 min 0,0 UV-I 0 W/m 0,0 km/h (0 Bft)
26.07.2014 03:08 15,6 C 14,4 C 98 % 1013,1 hPa 0,0 l/m 0 min 0 min 0,0 UV-I 0 W/m 0,0 km/h (0 Bft)
26.07.2014 03:10 15,6 C 14,4 C 98 % 1013,0 hPa 0,0 l/m 0 min 0 min 0,0 UV-I 0 W/m 0,0 km/h (0 Bft)
26.07.2014 03:12 15,6 C 14,4 C 98 % 1013,0 hPa 0,0 l/m 0 min 0 min 0,0 UV-I 0 W/m 0,0 km/h (0 Bft)
26.07.2014 03:14 15,6 C 14,4 C 98 % 1013,0 hPa 0,0 l/m 0 min 0 min 0,0 UV-I 0 W/m 0,0 km/h (0 Bft)
26.07.2014 03:16 15,4 C 14,4 C 97 % 1013,0 hPa 0,0 l/m 0 min 0 min 0,0 UV-I 0 W/m 0,0 km/h (0 Bft)
26.07.2014 03:18 15,5 C 14,4 C 97 % 1013,0 hPa 0,0 l/m 0 min 0 min 0,0 UV-I 0 W/m 0,0 km/h (0 Bft)
26.07.2014 03:20 15,4 C 14,4 C 98 % 1013,0 hPa 0,0 l/m 0 min 0 min 0,0 UV-I 0 W/m 0,0 km/h (0 Bft)
26.07.2014 03:22 15,4 C 14,4 C 98 % 1013,0 hPa 0,0 l/m 0 min 0 min 0,0 UV-I 0 W/m 0,0 km/h (0 Bft)
26.07.2014 03:24 15,4 C 14,4 C 98 % 1012,9 hPa 0,0 l/m 0 min 0 min 0,0 UV-I 0 W/m 0,0 km/h (0 Bft)
26.07.2014 03:26 15,4 C 13,9 C 98 % 1013,0 hPa 0,0 l/m 0 min 0 min 0,0 UV-I 0 W/m 0,0 km/h (0 Bft)
26.07.2014 03:28 15,4 C 13,9 C 98 % 1012,9 hPa 0,0 l/m 0 min 0 min 0,0 UV-I 0 W/m 0,0 km/h (0 Bft)
26.07.2014 03:30 15,3 C 13,9 C 98 % 1012,9 hPa 0,0 l/m 0 min 0 min 0,0 UV-I 0 W/m 0,0 km/h (0 Bft)
26.07.2014 03:32 15,3 C 13,9 C 98 % 1012,9 hPa 0,0 l/m 0 min 0 min 0,0 UV-I 0 W/m 0,0 km/h (0 Bft)
26.07.2014 03:34 15,3 C 13,9 C 98 % 1012,9 hPa 0,0 l/m 0 min 0 min 0,0 UV-I 0 W/m 0,0 km/h (0 Bft)
26.07.2014 03:36 15,4 C 13,9 C 98 % 1012,9 hPa 0,0 l/m 0 min 0 min 0,0 UV-I 0 W/m 0,0 km/h (0 Bft)
26.07.2014 03:38 15,4 C 13,9 C 98 % 1012,9 hPa 0,0 l/m 0 min 0 min 0,0 UV-I 0 W/m 0,0 km/h (0 Bft)
26.07.2014 03:40 15,4 C 13,9 C 98 % 1012,9 hPa 0,0 l/m 0 min 0 min 0,0 UV-I 0 W/m 0,0 km/h (0 Bft)
26.07.2014 03:42 15,4 C 13,9 C 98 % 1012,8 hPa 0,0 l/m 0 min 0 min 0,0 UV-I 0 W/m 0,0 km/h (0 Bft)
26.07.2014 03:44 15,4 C 13,9 C 98 % 1012,8 hPa 0,0 l/m 0 min 0 min 0,0 UV-I 0 W/m 0,0 km/h (0 Bft)
26.07.2014 03:46 15,3 C 13,9 C 98 % 1012,8 hPa 0,0 l/m 0 min 0 min 0,0 UV-I 0 W/m 0,0 km/h (0 Bft)
26.07.2014 03:48 15,3 C 13,9 C 98 % 1012,9 hPa 0,0 l/m 0 min 0 min 0,0 UV-I 0 W/m 0,0 km/h (0 Bft)
26.07.2014 03:50 15,3 C 13,9 C 98 % 1012,8 hPa 0,0 l/m 0 min 0 min 0,0 UV-I 0 W/m 0,0 km/h (0 Bft)
26.07.2014 03:52 15,4 C 13,9 C 98 % 1012,8 hPa 0,0 l/m 0 min 0 min 0,0 UV-I 0 W/m 0,0 km/h (0 Bft)
26.07.2014 03:54 15,3 C 13,9 C 98 % 1012,9 hPa 0,0 l/m 0 min 0 min 0,0 UV-I 0 W/m 0,0 km/h (0 Bft)
26.07.2014 03:56 15,3 C 13,9 C 98 % 1012,8 hPa 0,0 l/m 0 min 0 min 0,0 UV-I 0 W/m 0,0 km/h (0 Bft)
26.07.2014 03:58 15,3 C 13,9 C 98 % 1012,8 hPa 0,0 l/m 0 min 0 min 0,0 UV-I 0 W/m 0,0 km/h (0 Bft)
26.07.2014 04:00 15,3 C 13,9 C 98 % 1012,8 hPa 0,0 l/m 0 min 0 min 0,0 UV-I 0 W/m 0,0 km/h (0 Bft)
26.07.2014 04:02 15,3 C 13,9 C 98 % 1012,8 hPa 0,0 l/m 0 min 0 min 0,0 UV-I 0 W/m 0,0 km/h (0 Bft)
26.07.2014 04:04 15,3 C 13,9 C 98 % 1012,8 hPa 0,0 l/m 0 min 0 min 0,0 UV-I 0 W/m 0,0 km/h (0 Bft)
26.07.2014 04:06 15,3 C 13,9 C 98 % 1012,8 hPa 0,0 l/m 0 min 0 min 0,0 UV-I 0 W/m 0,0 km/h (0 Bft)
26.07.2014 04:08 15,3 C 13,9 C 98 % 1012,8 hPa 0,0 l/m 0 min 0 min 0,0 UV-I 0 W/m 0,0 km/h (0 Bft)
26.07.2014 04:10 15,2 C 13,9 C 98 % 1012,8 hPa 0,0 l/m 0 min 0 min 0,0 UV-I 0 W/m 0,0 km/h (0 Bft)
26.07.2014 04:11 15,2 C 13,9 C 98 % 1012,7 hPa 0,0 l/m 0 min 0 min 0,0 UV-I 0 W/m 0,0 km/h (0 Bft)
26.07.2014 04:12 15,2 C 13,9 C 98 % 1012,7 hPa 0,0 l/m 0 min 0 min 0,0 UV-I 0 W/m 0,0 km/h (0 Bft)
26.07.2014 04:13 15,2 C 13,9 C 98 % 1012,7 hPa 0,0 l/m 0 min 0 min 0,0 UV-I 0 W/m 0,0 km/h (0 Bft)
26.07.2014 04:14 15,2 C 13,9 C 98 % 1012,7 hPa 0,0 l/m 0 min 0 min 0,0 UV-I 0 W/m 0,0 km/h (0 Bft)
26.07.2014 04:15 15,2 C 13,9 C 98 % 1012,6 hPa 0,0 l/m 0 min 0 min 0,0 UV-I 0 W/m 0,0 km/h (0 Bft)
26.07.2014 04:16 15,2 C 13,9 C 98 % 1012,7 hPa 0,0 l/m 0 min 0 min 0,0 UV-I 0 W/m 0,0 km/h (0 Bft)
26.07.2014 04:17 15,2 C 13,9 C 98 % 1012,6 hPa 0,0 l/m 0 min 0 min 0,0 UV-I 0 W/m 0,0 km/h (0 Bft)
26.07.2014 04:20 15,2 C 13,9 C 98 % 1012,6 hPa 0,0 l/m 0 min 0 min 0,0 UV-I 0 W/m 0,0 km/h (0 Bft)
26.07.2014 04:22 15,2 C 13,9 C 98 % 1012,6 hPa 0,0 l/m 0 min 0 min 0,0 UV-I 0 W/m 0,0 km/h (0 Bft)
26.07.2014 04:24 15,2 C 13,9 C 98 % 1012,7 hPa 0,0 l/m 0 min 0 min 0,0 UV-I 0 W/m 0,0 km/h (0 Bft)
26.07.2014 04:26 15,2 C 13,9 C 98 % 1012,7 hPa 0,0 l/m 0 min 0 min 0,0 UV-I 0 W/m 0,0 km/h (0 Bft)
26.07.2014 04:28 15,2 C 13,9 C 98 % 1012,8 hPa 0,0 l/m 0 min 0 min 0,0 UV-I 0 W/m 0,0 km/h (0 Bft)
26.07.2014 04:30 15,2 C 13,9 C 98 % 1012,7 hPa 0,0 l/m 0 min 0 min 0,0 UV-I 0 W/m 0,0 km/h (0 Bft)
26.07.2014 04:32 15,2 C 13,9 C 98 % 1012,7 hPa 0,0 l/m 0 min 0 min 0,0 UV-I 0 W/m 0,0 km/h (0 Bft)
26.07.2014 04:34 15,2 C 13,9 C 98 % 1012,7 hPa 0,0 l/m 0 min 0 min 0,0 UV-I 0 W/m 0,0 km/h (0 Bft)
26.07.2014 04:36 15,1 C 13,9 C 98 % 1012,7 hPa 0,0 l/m 0 min 0 min 0,0 UV-I 0 W/m 0,0 km/h (0 Bft)
26.07.2014 04:38 15,1 C 13,9 C 98 % 1012,7 hPa 0,0 l/m 0 min 0 min 0,0 UV-I 0 W/m 0,0 km/h (0 Bft)
26.07.2014 04:40 15,1 C 13,9 C 98 % 1012,7 hPa 0,0 l/m 0 min 0 min 0,0 UV-I 0 W/m 0,0 km/h (0 Bft)
26.07.2014 04:42 15,1 C 13,9 C 98 % 1012,7 hPa 0,0 l/m 0 min 0 min 0,0 UV-I 0 W/m 0,0 km/h (0 Bft)
26.07.2014 04:44 15,1 C 13,9 C 98 % 1012,7 hPa 0,0 l/m 0 min 0 min 0,0 UV-I 0 W/m 0,0 km/h (0 Bft)
26.07.2014 04:46 15,1 C 13,9 C 98 % 1012,7 hPa 0,0 l/m 0 min 0 min 0,0 UV-I 0 W/m 0,0 km/h (0 Bft)
26.07.2014 04:48 15,2 C 14,4 C 98 % 1012,7 hPa 0,0 l/m 0 min 0 min 0,0 UV-I 0 W/m 0,0 km/h (0 Bft)
26.07.2014 04:50 15,2 C 14,4 C 98 % 1012,7 hPa 0,0 l/m 0 min 0 min 0,0 UV-I 0 W/m 0,0 km/h (0 Bft)
26.07.2014 04:52 15,2 C 14,4 C 98 % 1012,7 hPa 0,0 l/m 0 min 0 min 0,0 UV-I 0 W/m 0,0 km/h (0 Bft)
26.07.2014 04:54 15,3 C 14,4 C 98 % 1012,7 hPa 0,0 l/m 0 min 0 min 0,0 UV-I 0 W/m 0,0 km/h (0 Bft)
26.07.2014 04:56 15,3 C 14,4 C 99 % 1012,7 hPa 0,0 l/m 0 min 0 min 0,0 UV-I 0 W/m 0,0 km/h (0 Bft)
26.07.2014 04:58 15,3 C 14,4 C 99 % 1012,7 hPa 0,0 l/m 0 min 0 min 0,0 UV-I 0 W/m 0,0 km/h (0 Bft)
26.07.2014 05:00 15,4 C 14,4 C 99 % 1012,7 hPa 0,0 l/m 0 min 0 min 0,0 UV-I 0 W/m 0,0 km/h (0 Bft)
26.07.2014 05:02 15,4 C 14,4 C 99 % 1012,6 hPa 0,0 l/m 0 min 0 min 0,0 UV-I 0 W/m 0,0 km/h (0 Bft)
26.07.2014 05:04 15,4 C 14,4 C 99 % 1012,6 hPa 0,0 l/m 0 min 0 min 0,0 UV-I 0 W/m 0,0 km/h (0 Bft)
26.07.2014 05:06 15,4 C 14,4 C 99 % 1012,6 hPa 0,0 l/m 0 min 0 min 0,0 UV-I 0 W/m 0,0 km/h (0 Bft)
26.07.2014 05:08 15,4 C 14,4 C 99 % 1012,6 hPa 0,0 l/m 0 min 0 min 0,0 UV-I 0 W/m 0,0 km/h (0 Bft)
26.07.2014 05:10 15,4 C 14,4 C 99 % 1012,6 hPa 0,0 l/m 0 min 0 min 0,0 UV-I 0 W/m 4,2 km/h (1 Bft)
26.07.2014 05:12 15,5 C 14,4 C 99 % 1012,6 hPa 0,0 l/m 0 min 0 min 0,0 UV-I 0 W/m 0,0 km/h (0 Bft)
26.07.2014 05:14 15,5 C 14,4 C 99 % 1012,6 hPa 0,0 l/m 0 min 0 min 0,0 UV-I 0 W/m 0,0 km/h (0 Bft)
26.07.2014 05:16 15,5 C 14,4 C 99 % 1012,6 hPa 0,0 l/m 0 min 0 min 0,0 UV-I 0 W/m 0,0 km/h (0 Bft)
26.07.2014 05:18 15,5 C 14,4 C 99 % 1012,6 hPa 0,0 l/m 0 min 0 min 0,0 UV-I 0 W/m 0,0 km/h (0 Bft)
26.07.2014 05:20 15,6 C 14,4 C 99 % 1012,6 hPa 0,0 l/m 0 min 0 min 0,0 UV-I 0 W/m 2,1 km/h (1 Bft)
26.07.2014 05:22 15,6 C 14,4 C 99 % 1012,6 hPa 0,0 l/m 0 min 0 min 0,0 UV-I 0 W/m 6,3 km/h (2 Bft)
26.07.2014 05:24 15,6 C 14,4 C 99 % 1012,6 hPa 0,0 l/m 0 min 0 min 0,0 UV-I 0 W/m 6,3 km/h (2 Bft)
26.07.2014 05:26 15,6 C 14,4 C 99 % 1012,6 hPa 0,0 l/m 0 min 0 min 0,0 UV-I 0 W/m 6,3 km/h (2 Bft)
26.07.2014 05:28 15,6 C 14,4 C 99 % 1012,6 hPa 0,0 l/m 0 min 0 min 0,0 UV-I 0 W/m 0,0 km/h (0 Bft)
26.07.2014 05:30 15,6 C 14,4 C 99 % 1012,7 hPa 0,0 l/m 0 min 0 min 0,0 UV-I 0 W/m 8,4 km/h (2 Bft)
26.07.2014 05:32 15,6 C 14,4 C 99 % 1012,7 hPa 0,0 l/m 0 min 0 min 0,0 UV-I 0 W/m 6,3 km/h (2 Bft)
26.07.2014 05:34 15,6 C 14,4 C 99 % 1012,7 hPa 0,0 l/m 0 min 0 min 0,0 UV-I 0 W/m 6,3 km/h (2 Bft)
26.07.2014 05:36 15,6 C 14,4 C 99 % 1012,7 hPa 0,0 l/m 0 min 0 min 0,0 UV-I 0 W/m 4,2 km/h (1 Bft)
26.07.2014 05:38 15,6 C 14,4 C 99 % 1012,7 hPa 0,0 l/m 0 min 0 min 0,0 UV-I 0 W/m 0,0 km/h (0 Bft)
26.07.2014 05:40 15,6 C 14,4 C 99 % 1012,7 hPa 0,0 l/m 0 min 0 min 0,0 UV-I 0 W/m 6,3 km/h (2 Bft)
26.07.2014 05:42 15,6 C 14,4 C 99 % 1012,7 hPa 0,0 l/m 0 min 0 min 0,0 UV-I 0 W/m 6,3 km/h (2 Bft)
26.07.2014 05:44 15,6 C 15,0 C 99 % 1012,7 hPa 0,0 l/m 0 min 0 min 0,0 UV-I 0 W/m 0,0 km/h (0 Bft)
26.07.2014 05:46 15,7 C 15,0 C 99 % 1012,7 hPa 0,0 l/m 0 min 0 min 0,0 UV-I 0 W/m 0,0 km/h (0 Bft)
26.07.2014 05:48 15,7 C 15,0 C 99 % 1012,7 hPa 0,0 l/m 0 min 0 min 0,0 UV-I 0 W/m 0,0 km/h (0 Bft)
26.07.2014 05:50 15,6 C 15,0 C 99 % 1012,8 hPa 0,0 l/m 0 min 0 min 0,0 UV-I 0 W/m 0,0 km/h (0 Bft)
26.07.2014 05:52 15,7 C 14,4 C 99 % 1012,9 hPa 0,0 l/m 0 min 0 min 0,0 UV-I 0 W/m 0,0 km/h (0 Bft)
26.07.2014 05:54 15,7 C 15,0 C 99 % 1012,8 hPa 0,0 l/m 0 min 0 min 0,0 UV-I 0 W/m 0,0 km/h (0 Bft)
26.07.2014 05:56 15,7 C 15,0 C 99 % 1012,8 hPa 0,0 l/m 0 min 0 min 0,0 UV-I 0 W/m 0,0 km/h (0 Bft)
26.07.2014 05:58 15,7 C 15,0 C 99 % 1012,9 hPa 0,0 l/m 0 min 0 min 0,0 UV-I 0 W/m 0,0 km/h (0 Bft)
26.07.2014 06:00 15,6 C 14,4 C 99 % 1012,9 hPa 0,0 l/m 0 min 0 min 0,0 UV-I 0 W/m 0,0 km/h (0 Bft)
26.07.2014 06:02 15,7 C 15,0 C 99 % 1012,9 hPa 0,0 l/m 0 min 0 min 0,0 UV-I 0 W/m 0,0 km/h (0 Bft)
26.07.2014 06:06 15,7 C 15,0 C 99 % 1013,0 hPa 0,0 l/m 0 min 0 min 0,0 UV-I 2 W/m 0,0 km/h (0 Bft)
26.07.2014 06:08 15,7 C 15,0 C 99 % 1013,0 hPa 0,0 l/m 0 min 0 min 0,0 UV-I 5 W/m 0,0 km/h (0 Bft)
26.07.2014 06:10 15,6 C 15,0 C 99 % 1013,0 hPa 0,0 l/m 0 min 0 min 0,0 UV-I 5 W/m 0,0 km/h (0 Bft)
26.07.2014 06:12 15,6 C 14,4 C 99 % 1013,0 hPa 0,0 l/m 0 min 0 min 0,0 UV-I 5 W/m 0,0 km/h (0 Bft)
26.07.2014 06:14 15,6 C 14,4 C 99 % 1012,9 hPa 0,0 l/m 0 min 0 min 0,0 UV-I 5 W/m 0,0 km/h (0 Bft)
26.07.2014 06:16 15,6 C 14,4 C 99 % 1013,0 hPa 0,0 l/m 0 min 0 min 0,0 UV-I 5 W/m 0,0 km/h (0 Bft)
26.07.2014 06:18 15,6 C 14,4 C 99 % 1012,9 hPa 0,0 l/m 0 min 0 min 0,0 UV-I 7 W/m 0,0 km/h (0 Bft)
26.07.2014 06:20 15,7 C 15,0 C 99 % 1013,0 hPa 0,0 l/m 0 min 0 min 0,0 UV-I 7 W/m 0,0 km/h (0 Bft)
26.07.2014 06:22 15,7 C 15,0 C 99 % 1013,0 hPa 0,0 l/m 0 min 0 min 0,0 UV-I 9 W/m 0,0 km/h (0 Bft)
26.07.2014 06:24 15,7 C 15,0 C 99 % 1013,1 hPa 0,0 l/m 0 min 0 min 0,0 UV-I 11 W/m 2,1 km/h (1 Bft)
26.07.2014 06:26 15,7 C 15,0 C 99 % 1013,1 hPa 0,0 l/m 0 min 0 min 0,0 UV-I 11 W/m 0,0 km/h (0 Bft)
26.07.2014 06:28 15,6 C 15,0 C 99 % 1013,1 hPa 0,0 l/m 0 min 0 min 0,0 UV-I 12 W/m 0,0 km/h (0 Bft)
26.07.2014 06:30 15,7 C 15,0 C 99 % 1013,1 hPa 0,0 l/m 0 min 0 min 0,0 UV-I 14 W/m 0,0 km/h (0 Bft)
26.07.2014 06:32 15,7 C 15,0 C 99 % 1013,0 hPa 0,0 l/m 0 min 0 min 0,0 UV-I 14 W/m 0,0 km/h (0 Bft)
26.07.2014 06:34 15,7 C 15,0 C 99 % 1013,1 hPa 0,0 l/m 0 min 0 min 0,0 UV-I 15 W/m 0,0 km/h (0 Bft)
26.07.2014 06:36 15,7 C 15,0 C 99 % 1013,0 hPa 0,0 l/m 0 min 0 min 0,0 UV-I 17 W/m 0,0 km/h (0 Bft)
26.07.2014 06:38 15,7 C 15,0 C 99 % 1013,1 hPa 0,0 l/m 0 min 0 min 0,0 UV-I 18 W/m 0,0 km/h (0 Bft)
26.07.2014 06:40 15,8 C 15,0 C 99 % 1013,1 hPa 0,0 l/m 0 min 0 min 0,0 UV-I 18 W/m 0,0 km/h (0 Bft)
26.07.2014 06:42 15,8 C 15,0 C 99 % 1013,1 hPa 0,0 l/m 0 min 0 min 0,0 UV-I 18 W/m 2,1 km/h (1 Bft)
26.07.2014 06:44 15,7 C 15,0 C 99 % 1013,1 hPa 0,0 l/m 0 min 0 min 0,0 UV-I 19 W/m 4,2 km/h (1 Bft)
26.07.2014 06:46 15,7 C 14,4 C 99 % 1013,0 hPa 0,0 l/m 0 min 0 min 0,0 UV-I 19 W/m 6,3 km/h (2 Bft)
26.07.2014 06:48 15,7 C 15,0 C 99 % 1013,1 hPa 0,0 l/m 0 min 0 min 0,0 UV-I 19 W/m 8,4 km/h (2 Bft)
26.07.2014 06:50 15,6 C 15,0 C 99 % 1013,1 hPa 0,0 l/m 0 min 0 min 0,0 UV-I 22 W/m 8,4 km/h (2 Bft)
26.07.2014 06:52 15,7 C 15,0 C 99 % 1013,1 hPa 0,0 l/m 0 min 0 min 0,0 UV-I 21 W/m 6,3 km/h (2 Bft)
26.07.2014 06:54 15,7 C 15,0 C 99 % 1013,1 hPa 0,0 l/m 0 min 0 min 0,0 UV-I 19 W/m 0,0 km/h (0 Bft)
26.07.2014 06:56 15,7 C 15,0 C 99 % 1013,1 hPa 0,0 l/m 0 min 0 min 0,0 UV-I 21 W/m 0,0 km/h (0 Bft)
26.07.2014 06:58 15,7 C 15,0 C 99 % 1013,1 hPa 0,0 l/m 0 min 0 min 0,0 UV-I 23 W/m 6,3 km/h (2 Bft)
26.07.2014 07:00 15,6 C 15,0 C 99 % 1013,1 hPa 0,0 l/m 0 min 0 min 0,0 UV-I 24 W/m 8,4 km/h (2 Bft)
26.07.2014 07:02 15,6 C 15,0 C 99 % 1013,1 hPa 0,0 l/m 0 min 0 min 0,0 UV-I 25 W/m 8,4 km/h (2 Bft)
26.07.2014 07:04 15,6 C 15,0 C 99 % 1013,1 hPa 0,0 l/m 0 min 0 min 0,0 UV-I 24 W/m 8,4 km/h (2 Bft)
26.07.2014 07:06 15,6 C 15,0 C 99 % 1013,1 hPa 0,0 l/m 0 min 0 min 0,0 UV-I 24 W/m 8,4 km/h (2 Bft)
26.07.2014 07:08 15,7 C 15,0 C 99 % 1013,1 hPa 0,0 l/m 0 min 0 min 0,0 UV-I 25 W/m 8,4 km/h (2 Bft)
26.07.2014 07:10 15,7 C 15,0 C 99 % 1013,1 hPa 0,0 l/m 0 min 0 min 0,0 UV-I 25 W/m 8,4 km/h (2 Bft)
26.07.2014 07:12 15,7 C 15,0 C 99 % 1013,1 hPa 0,0 l/m 0 min 0 min 0,0 UV-I 25 W/m 6,3 km/h (2 Bft)
26.07.2014 07:14 15,7 C 15,0 C 99 % 1013,1 hPa 0,0 l/m 0 min 0 min 0,0 UV-I 28 W/m 0,0 km/h (0 Bft)
26.07.2014 07:16 15,8 C 15,0 C 100 % 1013,2 hPa 0,0 l/m 0 min 0 min 0,0 UV-I 31 W/m 0,0 km/h (0 Bft)
26.07.2014 07:18 15,8 C 15,0 C 100 % 1013,2 hPa 0,0 l/m 0 min 0 min 0,0 UV-I 28 W/m 0,0 km/h (0 Bft)
26.07.2014 07:20 15,8 C 15,0 C 100 % 1013,2 hPa 0,0 l/m 0 min 0 min 0,0 UV-I 27 W/m 0,0 km/h (0 Bft)
26.07.2014 07:22 15,9 C 15,0 C 100 % 1013,2 hPa 0,0 l/m 0 min 0 min 0,0 UV-I 30 W/m 0,0 km/h (0 Bft)
26.07.2014 07:24 15,9 C 15,0 C 100 % 1013,2 hPa 0,0 l/m 0 min 0 min 0,0 UV-I 31 W/m 0,0 km/h (0 Bft)
26.07.2014 07:26 15,9 C 15,0 C 100 % 1013,2 hPa 0,0 l/m 0 min 0 min 0,0 UV-I 35 W/m 0,0 km/h (0 Bft)
26.07.2014 07:28 15,9 C 15,0 C 100 % 1013,1 hPa 0,0 l/m 0 min 0 min 0,0 UV-I 36 W/m 2,1 km/h (1 Bft)
26.07.2014 07:30 15,8 C 15,0 C 100 % 1013,1 hPa 0,0 l/m 0 min 0 min 0,0 UV-I 35 W/m 0,0 km/h (0 Bft)
26.07.2014 07:32 15,9 C 15,0 C 100 % 1013,2 hPa 0,0 l/m 0 min 0 min 0,0 UV-I 38 W/m 0,0 km/h (0 Bft)
26.07.2014 07:34 16,0 C 15,6 C 99 % 1013,2 hPa 0,0 l/m 0 min 0 min 0,0 UV-I 41 W/m 0,0 km/h (0 Bft)
26.07.2014 07:36 16,0 C 15,6 C 100 % 1013,1 hPa 0,0 l/m 0 min 0 min 0,0 UV-I 43 W/m 0,0 km/h (0 Bft)
26.07.2014 07:38 15,9 C 15,6 C 100 % 1013,1 hPa 0,0 l/m 0 min 0 min 0,0 UV-I 45 W/m 0,0 km/h (0 Bft)
26.07.2014 07:40 16,0 C 15,6 C 100 % 1013,1 hPa 0,0 l/m 0 min 0 min 0,0 UV-I 49 W/m 0,0 km/h (0 Bft)
26.07.2014 07:42 16,1 C 15,6 C 100 % 1013,1 hPa 0,0 l/m 0 min 0 min 0,0 UV-I 50 W/m 0,0 km/h (0 Bft)
26.07.2014 07:44 16,2 C 15,6 C 100 % 1013,1 hPa 0,0 l/m 0 min 0 min 0,0 UV-I 47 W/m 0,0 km/h (0 Bft)
26.07.2014 07:46 16,1 C 15,6 C 100 % 1013,1 hPa 0,0 l/m 0 min 0 min 0,0 UV-I 47 W/m 0,0 km/h (0 Bft)
26.07.2014 07:48 16,2 C 15,6 C 100 % 1013,1 hPa 0,0 l/m 0 min 0 min 0,0 UV-I 48 W/m 0,0 km/h (0 Bft)
26.07.2014 07:50 16,2 C 15,6 C 100 % 1013,1 hPa 0,0 l/m 0 min 0 min 0,0 UV-I 50 W/m 0,0 km/h (0 Bft)
26.07.2014 07:52 16,2 C 15,6 C 100 % 1013,2 hPa 0,0 l/m 0 min 0 min 0,0 UV-I 53 W/m 0,0 km/h (0 Bft)
26.07.2014 07:54 16,2 C 15,6 C 100 % 1013,1 hPa 0,0 l/m 0 min 0 min 0,0 UV-I 50 W/m 0,0 km/h (0 Bft)
26.07.2014 07:56 16,2 C 15,6 C 100 % 1013,1 hPa 0,0 l/m 0 min 0 min 0,0 UV-I 51 W/m 0,0 km/h (0 Bft)
26.07.2014 07:58 16,3 C 15,6 C 100 % 1013,1 hPa 0,0 l/m 0 min 0 min 0,0 UV-I 55 W/m 0,0 km/h (0 Bft)
26.07.2014 08:00 16,3 C 15,6 C 100 % 1013,1 hPa 0,0 l/m 0 min 0 min 0,0 UV-I 56 W/m 0,0 km/h (0 Bft)
26.07.2014 08:02 16,3 C 16,1 C 100 % 1013,1 hPa 0,0 l/m 0 min 0 min 0,0 UV-I 57 W/m 0,0 km/h (0 Bft)
26.07.2014 08:04 16,4 C 16,1 C 100 % 1013,1 hPa 0,0 l/m 0 min 0 min 0,0 UV-I 54 W/m 2,1 km/h (1 Bft)
26.07.2014 08:06 16,3 C 16,1 C 100 % 1013,2 hPa 0,0 l/m 0 min 0 min 0,0 UV-I 57 W/m 0,0 km/h (0 Bft)
26.07.2014 08:08 16,3 C 16,1 C 100 % 1013,1 hPa 0,0 l/m 0 min 0 min 0,0 UV-I 60 W/m 0,0 km/h (0 Bft)
26.07.2014 08:10 16,3 C 16,1 C 100 % 1013,2 hPa 0,0 l/m 0 min 0 min 0,0 UV-I 61 W/m 0,0 km/h (0 Bft)
26.07.2014 08:12 16,3 C 16,1 C 100 % 1013,2 hPa 0,0 l/m 0 min 0 min 0,0 UV-I 60 W/m 0,0 km/h (0 Bft)
26.07.2014 08:14 16,3 C 16,1 C 100 % 1013,2 hPa 0,0 l/m 0 min 0 min 0,0 UV-I 65 W/m 0,0 km/h (0 Bft)
26.07.2014 08:16 16,4 C 16,1 C 100 % 1013,2 hPa 0,0 l/m 0 min 0 min 0,0 UV-I 71 W/m 0,0 km/h (0 Bft)
26.07.2014 08:18 16,4 C 16,1 C 100 % 1013,3 hPa 0,0 l/m 0 min 0 min 0,0 UV-I 77 W/m 0,0 km/h (0 Bft)
26.07.2014 08:20 16,4 C 16,7 C 100 % 1013,2 hPa 0,0 l/m 0 min 0 min 0,0 UV-I 86 W/m 2,1 km/h (1 Bft)
26.07.2014 08:22 16,4 C 16,7 C 100 % 1013,2 hPa 0,0 l/m 0 min 0 min 0,0 UV-I 91 W/m 0,0 km/h (0 Bft)
26.07.2014 08:24 16,5 C 16,1 C 100 % 1013,3 hPa 0,0 l/m 0 min 0 min 0,0 UV-I 86 W/m 0,0 km/h (0 Bft)
26.07.2014 08:26 16,5 C 16,1 C 100 % 1013,3 hPa 0,0 l/m 0 min 0 min 0,0 UV-I 77 W/m 0,0 km/h (0 Bft)
26.07.2014 08:28 16,4 C 16,1 C 100 % 1013,4 hPa 0,0 l/m 0 min 0 min 0,0 UV-I 68 W/m 4,2 km/h (1 Bft)
26.07.2014 08:30 16,4 C 16,1 C 100 % 1013,3 hPa 0,0 l/m 0 min 0 min 0,0 UV-I 71 W/m 6,3 km/h (2 Bft)
26.07.2014 08:32 16,3 C 16,1 C 100 % 1013,3 hPa 0,0 l/m 0 min 0 min 0,0 UV-I 71 W/m 0,0 km/h (0 Bft)
26.07.2014 08:34 16,3 C 16,1 C 100 % 1013,4 hPa 0,0 l/m 0 min 0 min 0,0 UV-I 71 W/m 0,0 km/h (0 Bft)
26.07.2014 08:36 16,3 C 16,1 C 100 % 1013,4 hPa 0,0 l/m 0 min 0 min 0,0 UV-I 72 W/m 0,0 km/h (0 Bft)
26.07.2014 08:38 16,3 C 16,1 C 100 % 1013,4 hPa 0,0 l/m 0 min 0 min 0,0 UV-I 67 W/m 0,0 km/h (0 Bft)
26.07.2014 08:40 16,3 C 16,1 C 100 % 1013,5 hPa 0,0 l/m 0 min 0 min 0,0 UV-I 67 W/m 0,0 km/h (0 Bft)
26.07.2014 08:42 16,3 C 16,1 C 100 % 1013,5 hPa 0,0 l/m 0 min 0 min 0,0 UV-I 67 W/m 0,0 km/h (0 Bft)
26.07.2014 08:44 16,3 C 16,7 C 100 % 1013,4 hPa 0,0 l/m 0 min 0 min 0,0 UV-I 71 W/m 0,0 km/h (0 Bft)
26.07.2014 08:46 16,3 C 16,7 C 100 % 1013,4 hPa 0,0 l/m 0 min 0 min 0,0 UV-I 77 W/m 0,0 km/h (0 Bft)
26.07.2014 08:48 16,3 C 16,7 C 100 % 1013,4 hPa 0,0 l/m 0 min 0 min 0,0 UV-I 78 W/m 0,0 km/h (0 Bft)
26.07.2014 08:50 16,3 C 16,7 C 100 % 1013,4 hPa 0,0 l/m 0 min 0 min 0,0 UV-I 74 W/m 0,0 km/h (0 Bft)
26.07.2014 08:52 16,3 C 16,7 C 100 % 1013,5 hPa 0,0 l/m 0 min 0 min 0,0 UV-I 72 W/m 4,2 km/h (1 Bft)
26.07.2014 08:54 16,3 C 16,7 C 100 % 1013,5 hPa 0,0 l/m 0 min 0 min 0,0 UV-I 77 W/m 0,0 km/h (0 Bft)
26.07.2014 08:56 16,3 C 16,7 C 100 % 1013,5 hPa 0,0 l/m 0 min 0 min 0,0 UV-I 76 W/m 0,0 km/h (0 Bft)
26.07.2014 08:58 16,3 C 16,7 C 100 % 1013,6 hPa 0,0 l/m 0 min 0 min 0,0 UV-I 71 W/m 0,0 km/h (0 Bft)
26.07.2014 09:00 16,3 C 16,7 C 100 % 1013,5 hPa 0,0 l/m 0 min 0 min 0,0 UV-I 69 W/m 0,0 km/h (0 Bft)
26.07.2014 09:02 16,3 C 16,7 C 100 % 1013,6 hPa 0,0 l/m 0 min 0 min 0,0 UV-I 70 W/m 2,1 km/h (1 Bft)
26.07.2014 09:04 16,3 C 16,7 C 100 % 1013,6 hPa 0,0 l/m 0 min 0 min 0,0 UV-I 64 W/m 0,0 km/h (0 Bft)
26.07.2014 09:06 16,3 C 16,7 C 100 % 1013,6 hPa 0,0 l/m 0 min 0 min 0,0 UV-I 59 W/m 0,0 km/h (0 Bft)
26.07.2014 09:08 16,3 C 16,7 C 100 % 1013,6 hPa 0,0 l/m 0 min 0 min 0,0 UV-I 60 W/m 0,0 km/h (0 Bft)
26.07.2014 09:10 16,3 C 16,7 C 100 % 1013,7 hPa 0,0 l/m 0 min 0 min 0,0 UV-I 65 W/m 4,2 km/h (1 Bft)
26.07.2014 09:12 16,3 C 16,7 C 100 % 1013,6 hPa 0,0 l/m 0 min 0 min 0,0 UV-I 63 W/m 8,4 km/h (2 Bft)
26.07.2014 09:14 16,3 C 16,7 C 100 % 1013,6 hPa 0,0 l/m 0 min 0 min 0,0 UV-I 69 W/m 6,3 km/h (2 Bft)
26.07.2014 09:16 16,3 C 16,7 C 100 % 1013,6 hPa 0,0 l/m 0 min 0 min 0,0 UV-I 74 W/m 2,1 km/h (1 Bft)
26.07.2014 09:18 16,3 C 16,7 C 100 % 1013,6 hPa 0,0 l/m 0 min 0 min 0,0 UV-I 79 W/m 0,0 km/h (0 Bft)
26.07.2014 09:20 16,3 C 16,7 C 100 % 1013,7 hPa 0,0 l/m 0 min 0 min 0,0 UV-I 83 W/m 0,0 km/h (0 Bft)
26.07.2014 09:22 16,3 C 16,7 C 100 % 1013,6 hPa 0,0 l/m 0 min 0 min 0,0 UV-I 83 W/m 0,0 km/h (0 Bft)
26.07.2014 09:24 16,3 C 16,7 C 100 % 1013,6 hPa 0,0 l/m 0 min 0 min 0,0 UV-I 83 W/m 2,1 km/h (1 Bft)
26.07.2014 09:26 16,3 C 16,7 C 100 % 1013,6 hPa 0,0 l/m 0 min 0 min 0,0 UV-I 84 W/m 6,3 km/h (2 Bft)
26.07.2014 09:28 16,3 C 16,7 C 100 % 1013,6 hPa 0,0 l/m 0 min 0 min 0,0 UV-I 91 W/m 6,3 km/h (2 Bft)
26.07.2014 09:30 16,3 C 16,7 C 100 % 1013,6 hPa 0,0 l/m 0 min 0 min 0,0 UV-I 98 W/m 0,0 km/h (0 Bft)
26.07.2014 09:32 16,3 C 16,7 C 100 % 1013,6 hPa 0,0 l/m 0 min 0 min 0,0 UV-I 100 W/m 4,2 km/h (1 Bft)
26.07.2014 09:34 16,8 C 17,2 C 100 % 1013,6 hPa 0,0 l/m 0 min 0 min 0,0 UV-I 104 W/m 8,4 km/h (2 Bft)
26.07.2014 09:36 16,7 C 17,2 C 100 % 1013,6 hPa 0,0 l/m 0 min 0 min 0,0 UV-I 105 W/m 6,3 km/h (2 Bft)
26.07.2014 09:38 16,8 C 17,2 C 100 % 1013,6 hPa 0,0 l/m 0 min 0 min 0,0 UV-I 117 W/m 6,3 km/h (2 Bft)
26.07.2014 09:40 16,8 C 17,2 C 100 % 1013,6 hPa 0,0 l/m 0 min 0 min 0,0 UV-I 135 W/m 0,0 km/h (0 Bft)
26.07.2014 09:42 16,9 C 17,2 C 100 % 1013,7 hPa 0,0 l/m 0 min 0 min 0,0 UV-I 145 W/m 0,0 km/h (0 Bft)
26.07.2014 09:44 17,1 C 17,2 C 100 % 1013,6 hPa 0,0 l/m 0 min 0 min 0,0 UV-I 149 W/m 0,0 km/h (0 Bft)
26.07.2014 09:46 17,0 C 17,2 C 100 % 1013,7 hPa 0,0 l/m 0 min 0 min 0,0 UV-I 143 W/m 0,0 km/h (0 Bft)
26.07.2014 09:48 17,1 C 17,8 C 100 % 1013,6 hPa 0,0 l/m 0 min 0 min 0,0 UV-I 133 W/m 2,1 km/h (1 Bft)
26.07.2014 09:50 17,1 C 17,8 C 100 % 1013,6 hPa 0,0 l/m 0 min 0 min 0,0 UV-I 134 W/m 0,0 km/h (0 Bft)
26.07.2014 09:52 17,1 C 17,8 C 100 % 1013,6 hPa 0,0 l/m 0 min 0 min 0,0 UV-I 142 W/m 8,4 km/h (2 Bft)
26.07.2014 09:54 17,1 C 17,8 C 100 % 1013,7 hPa 0,0 l/m 0 min 0 min 0,0 UV-I 135 W/m 6,3 km/h (2 Bft)
26.07.2014 09:56 17,1 C 17,8 C 100 % 1013,6 hPa 0,0 l/m 0 min 0 min 0,0 UV-I 136 W/m 6,3 km/h (2 Bft)
26.07.2014 09:58 17,2 C 17,8 C 100 % 1013,6 hPa 0,0 l/m 0 min 0 min 0,0 UV-I 144 W/m 0,0 km/h (0 Bft)
26.07.2014 10:00 17,2 C 17,8 C 100 % 1013,6 hPa 0,0 l/m 0 min 0 min 0,0 UV-I 134 W/m 0,0 km/h (0 Bft)
26.07.2014 10:02 17,2 C 17,8 C 100 % 1013,6 hPa 0,0 l/m 0 min 0 min 0,0 UV-I 129 W/m 6,3 km/h (2 Bft)
26.07.2014 10:04 17,3 C 17,8 C 100 % 1013,6 hPa 0,0 l/m 0 min 0 min 0,0 UV-I 141 W/m 8,4 km/h (2 Bft)
26.07.2014 10:06 17,2 C 17,8 C 100 % 1013,6 hPa 0,0 l/m 0 min 0 min 0,0 UV-I 151 W/m 10,5 km/h (2 Bft)
26.07.2014 10:08 17,3 C 17,8 C 100 % 1013,6 hPa 0,0 l/m 0 min 0 min 0,0 UV-I 158 W/m 10,5 km/h (2 Bft)
26.07.2014 10:10 17,3 C 17,8 C 100 % 1013,6 hPa 0,0 l/m 0 min 0 min 0,0 UV-I 156 W/m 8,4 km/h (2 Bft)
26.07.2014 10:12 17,3 C 17,8 C 100 % 1013,6 hPa 0,0 l/m 0 min 0 min 0,0 UV-I 145 W/m 8,4 km/h (2 Bft)
26.07.2014 10:14 17,3 C 17,8 C 100 % 1013,6 hPa 0,0 l/m 0 min 0 min 0,0 UV-I 148 W/m 6,3 km/h (2 Bft)
26.07.2014 10:16 17,3 C 17,8 C 100 % 1013,6 hPa 0,0 l/m 0 min 0 min 0,0 UV-I 146 W/m 12,6 km/h (3 Bft)
26.07.2014 10:18 17,4 C 17,8 C 100 % 1013,7 hPa 0,0 l/m 0 min 0 min 0,0 UV-I 155 W/m 12,6 km/h (3 Bft)
26.07.2014 10:20 17,4 C 17,8 C 100 % 1013,7 hPa 0,0 l/m 0 min 0 min 0,0 UV-I 163 W/m 10,5 km/h (2 Bft)
26.07.2014 10:22 17,5 C 17,8 C 100 % 1013,6 hPa 0,0 l/m 0 min 0 min 0,0 UV-I 153 W/m 8,4 km/h (2 Bft)
26.07.2014 10:24 17,6 C 18,3 C 100 % 1013,7 hPa 0,0 l/m 0 min 0 min 0,0 UV-I 150 W/m 12,6 km/h (3 Bft)
26.07.2014 10:26 17,6 C 18,3 C 100 % 1013,6 hPa 0,0 l/m 0 min 0 min 0,0 UV-I 166 W/m 8,4 km/h (2 Bft)
26.07.2014 10:28 17,6 C 18,3 C 100 % 1013,7 hPa 0,0 l/m 0 min 0 min 0,2 UV-I 176 W/m 10,5 km/h (2 Bft)
26.07.2014 10:30 17,6 C 18,3 C 100 % 1013,7 hPa 0,0 l/m 0 min 0 min 0,0 UV-I 167 W/m 8,4 km/h (2 Bft)
26.07.2014 10:32 17,7 C 18,3 C 100 % 1013,7 hPa 0,0 l/m 0 min 0 min 0,0 UV-I 161 W/m 8,4 km/h (2 Bft)
26.07.2014 10:34 17,7 C 18,3 C 100 % 1013,6 hPa 0,0 l/m 0 min 0 min 0,0 UV-I 157 W/m 8,4 km/h (2 Bft)
26.07.2014 10:36 17,7 C 18,3 C 100 % 1013,7 hPa 0,0 l/m 0 min 0 min 0,0 UV-I 161 W/m 8,4 km/h (2 Bft)
26.07.2014 10:38 17,8 C 18,3 C 100 % 1013,7 hPa 0,0 l/m 0 min 0 min 0,0 UV-I 156 W/m 0,0 km/h (0 Bft)
26.07.2014 10:40 17,8 C 18,3 C 100 % 1013,7 hPa 0,0 l/m 0 min 0 min 0,0 UV-I 154 W/m 2,1 km/h (1 Bft)
26.07.2014 10:42 17,8 C 18,3 C 100 % 1013,7 hPa 0,0 l/m 0 min 0 min 0,0 UV-I 164 W/m 10,5 km/h (2 Bft)
26.07.2014 10:44 17,8 C 18,3 C 100 % 1013,8 hPa 0,0 l/m 0 min 0 min 0,0 UV-I 163 W/m 8,4 km/h (2 Bft)
26.07.2014 10:46 17,9 C 18,3 C 100 % 1013,8 hPa 0,0 l/m 0 min 0 min 0,0 UV-I 136 W/m 10,5 km/h (2 Bft)
26.07.2014 10:48 18,0 C 18,3 C 100 % 1013,8 hPa 0,0 l/m 0 min 0 min 0,0 UV-I 129 W/m 10,5 km/h (2 Bft)
26.07.2014 10:50 18,0 C 18,3 C 100 % 1013,8 hPa 0,0 l/m 0 min 0 min 0,0 UV-I 131 W/m 0,0 km/h (0 Bft)
26.07.2014 10:52 18,1 C 18,3 C 99 % 1013,9 hPa 0,0 l/m 0 min 0 min 0,0 UV-I 131 W/m 10,5 km/h (2 Bft)
26.07.2014 10:54 18,1 C 18,3 C 99 % 1013,9 hPa 0,0 l/m 0 min 0 min 0,0 UV-I 143 W/m 8,4 km/h (2 Bft)
26.07.2014 10:56 18,2 C 18,3 C 99 % 1013,9 hPa 0,0 l/m 0 min 0 min 0,0 UV-I 146 W/m 0,0 km/h (0 Bft)
26.07.2014 10:58 18,1 C 18,3 C 99 % 1013,9 hPa 0,0 l/m 0 min 0 min 0,0 UV-I 141 W/m 0,0 km/h (0 Bft)
26.07.2014 11:00 18,1 C 18,3 C 98 % 1013,9 hPa 0,0 l/m 0 min 0 min 0,0 UV-I 138 W/m 8,4 km/h (2 Bft)
26.07.2014 11:02 18,2 C 18,3 C 98 % 1014,0 hPa 0,0 l/m 0 min 0 min 0,0 UV-I 130 W/m 6,3 km/h (2 Bft)
26.07.2014 11:04 18,1 C 18,3 C 98 % 1014,0 hPa 0,0 l/m 0 min 0 min 0,0 UV-I 124 W/m 10,5 km/h (2 Bft)
26.07.2014 11:06 18,1 C 18,3 C 97 % 1014,0 hPa 0,0 l/m 0 min 0 min 0,0 UV-I 132 W/m 6,3 km/h (2 Bft)
26.07.2014 11:08 18,1 C 18,3 C 97 % 1014,0 hPa 0,0 l/m 0 min 0 min 0,5 UV-I 168 W/m 4,2 km/h (1 Bft)
26.07.2014 11:10 18,2 C 18,3 C 96 % 1014,0 hPa 0,0 l/m 0 min 0 min 0,6 UV-I 184 W/m 8,4 km/h (2 Bft)
26.07.2014 11:12 18,2 C 18,3 C 96 % 1014,0 hPa 0,0 l/m 0 min 0 min 0,7 UV-I 184 W/m 6,3 km/h (2 Bft)
26.07.2014 11:14 18,3 C 18,9 C 96 % 1014,1 hPa 0,0 l/m 0 min 0 min 0,6 UV-I 177 W/m 8,4 km/h (2 Bft)
26.07.2014 11:16 18,3 C 18,3 C 96 % 1014,1 hPa 0,0 l/m 0 min 0 min 0,2 UV-I 157 W/m 2,1 km/h (1 Bft)
26.07.2014 11:18 18,3 C 18,3 C 95 % 1014,1 hPa 0,0 l/m 0 min 0 min 0,0 UV-I 144 W/m 6,3 km/h (2 Bft)
26.07.2014 11:20 18,5 C 18,9 C 95 % 1014,1 hPa 0,0 l/m 0 min 0 min 0,5 UV-I 165 W/m 8,4 km/h (2 Bft)
26.07.2014 11:22 18,7 C 18,9 C 95 % 1014,1 hPa 0,0 l/m 0 min 0 min 0,6 UV-I 169 W/m 6,3 km/h (2 Bft)
26.07.2014 11:24 18,6 C 18,9 C 95 % 1014,1 hPa 0,0 l/m 0 min 0 min 0,5 UV-I 164 W/m 8,4 km/h (2 Bft)
26.07.2014 11:26 18,7 C 18,9 C 95 % 1014,1 hPa 0,0 l/m 0 min 0 min 0,6 UV-I 168 W/m 10,5 km/h (2 Bft)
26.07.2014 11:28 18,6 C 18,9 C 94 % 1014,1 hPa 0,0 l/m 0 min 0 min 0,6 UV-I 172 W/m 8,4 km/h (2 Bft)
26.07.2014 11:30 18,7 C 18,9 C 94 % 1014,1 hPa 0,0 l/m 0 min 0 min 0,6 UV-I 182 W/m 6,3 km/h (2 Bft)
26.07.2014 11:32 18,6 C 18,9 C 94 % 1014,1 hPa 0,0 l/m 0 min 0 min 0,7 UV-I 188 W/m 0,0 km/h (0 Bft)
26.07.2014 11:34 18,7 C 18,9 C 94 % 1014,1 hPa 0,0 l/m 0 min 0 min 0,7 UV-I 188 W/m 10,5 km/h (2 Bft)
26.07.2014 11:36 18,8 C 18,9 C 93 % 1014,1 hPa 0,0 l/m 0 min 0 min 0,7 UV-I 191 W/m 10,5 km/h (2 Bft)
26.07.2014 11:38 18,9 C 19,4 C 93 % 1014,1 hPa 0,0 l/m 0 min 0 min 0,9 UV-I 222 W/m 4,2 km/h (1 Bft)
26.07.2014 11:40 19,1 C 19,4 C 93 % 1014,0 hPa 0,0 l/m 0 min 0 min 1,3 UV-I 270 W/m 8,4 km/h (2 Bft)
26.07.2014 11:42 19,2 C 20,0 C 93 % 1014,1 hPa 0,0 l/m 0 min 0 min 1,5 UV-I 302 W/m 8,4 km/h (2 Bft)
26.07.2014 11:44 19,3 C 20,0 C 92 % 1014,1 hPa 0,0 l/m 0 min 0 min 1,5 UV-I 296 W/m 10,5 km/h (2 Bft)
26.07.2014 11:46 19,4 C 20,0 C 91 % 1014,1 hPa 0,0 l/m 0 min 0 min 1,5 UV-I 292 W/m 8,4 km/h (2 Bft)
26.07.2014 11:48 19,6 C 20,6 C 91 % 1014,1 hPa 0,0 l/m 0 min 0 min 1,7 UV-I 313 W/m 10,5 km/h (2 Bft)
26.07.2014 11:50 19,5 C 20,6 C 90 % 1014,1 hPa 0,0 l/m 2 min 0 min 2,2 UV-I 390 W/m 2,1 km/h (1 Bft)
26.07.2014 11:52 19,7 C 21,1 C 90 % 1014,1 hPa 0,0 l/m 2 min 0 min 2,5 UV-I 433 W/m 6,3 km/h (2 Bft)
26.07.2014 11:54 19,9 C 21,1 C 89 % 1014,0 hPa 0,0 l/m 2 min 0 min 2,7 UV-I 484 W/m 2,1 km/h (1 Bft)
26.07.2014 11:56 20,2 C 21,7 C 88 % 1014,1 hPa 0,0 l/m 2 min 0 min 2,7 UV-I 453 W/m 10,5 km/h (2 Bft)
26.07.2014 11:58 20,2 C 21,7 C 87 % 1014,0 hPa 0,0 l/m 2 min 0 min 2,8 UV-I 482 W/m 6,3 km/h (2 Bft)
26.07.2014 12:00 20,2 C 21,7 C 86 % 1014,0 hPa 0,0 l/m 2 min 0 min 2,8 UV-I 448 W/m 8,4 km/h (2 Bft)
26.07.2014 12:02 20,3 C 21,1 C 86 % 1014,0 hPa 0,0 l/m 2 min 0 min 2,6 UV-I 443 W/m 8,4 km/h (2 Bft)
26.07.2014 12:06 20,3 C 21,7 C 86 % 1014,1 hPa 0,0 l/m 2 min 0 min 2,4 UV-I 427 W/m 8,4 km/h (2 Bft)
26.07.2014 12:08 20,4 C 21,7 C 86 % 1014,1 hPa 0,0 l/m 2 min 0 min 2,3 UV-I 429 W/m 10,5 km/h (2 Bft)
26.07.2014 12:10 20,6 C 21,7 C 87 % 1014,1 hPa 0,0 l/m 0 min 0 min 1,9 UV-I 358 W/m 12,6 km/h (3 Bft)
26.07.2014 12:12 20,7 C 21,7 C 86 % 1014,1 hPa 0,0 l/m 0 min 0 min 2,0 UV-I 341 W/m 10,5 km/h (2 Bft)
26.07.2014 12:14 20,7 C 21,7 C 87 % 1014,2 hPa 0,0 l/m 2 min 0 min 2,4 UV-I 415 W/m 8,4 km/h (2 Bft)
26.07.2014 12:16 20,9 C 22,2 C 87 % 1014,2 hPa 0,0 l/m 2 min 0 min 3,0 UV-I 438 W/m 16,7 km/h (3 Bft)
26.07.2014 12:18 21,0 C 22,2 C 86 % 1014,2 hPa 0,0 l/m 2 min 0 min 3,1 UV-I 490 W/m 8,4 km/h (2 Bft)
26.07.2014 12:20 21,1 C 22,8 C 84 % 1014,2 hPa 0,0 l/m 2 min 0 min 3,1 UV-I 500 W/m 6,3 km/h (2 Bft)
26.07.2014 12:22 21,0 C 22,8 C 84 % 1014,1 hPa 0,0 l/m 2 min 0 min 2,9 UV-I 440 W/m 6,3 km/h (2 Bft)
26.07.2014 12:24 21,1 C 22,8 C 85 % 1014,1 hPa 0,0 l/m 2 min 0 min 3,0 UV-I 460 W/m 10,5 km/h (2 Bft)
26.07.2014 12:26 21,4 C 23,3 C 85 % 1014,1 hPa 0,0 l/m 2 min 0 min 2,9 UV-I 453 W/m 14,6 km/h (3 Bft)
26.07.2014 12:28 21,4 C 22,8 C 83 % 1014,1 hPa 0,0 l/m 2 min 0 min 2,8 UV-I 497 W/m 4,2 km/h (1 Bft)
26.07.2014 12:30 21,4 C 22,8 C 84 % 1014,1 hPa 0,0 l/m 0 min 0 min 2,5 UV-I 373 W/m 6,3 km/h (2 Bft)
26.07.2014 12:32 21,5 C 22,8 C 84 % 1014,1 hPa 0,0 l/m 0 min 0 min 2,8 UV-I 380 W/m 12,6 km/h (3 Bft)
26.07.2014 12:34 21,4 C 22,2 C 83 % 1014,1 hPa 0,0 l/m 0 min 0 min 2,6 UV-I 305 W/m 10,5 km/h (2 Bft)
26.07.2014 12:36 21,5 C 23,9 C 84 % 1014,1 hPa 0,0 l/m 2 min 0 min 4,1 UV-I 408 W/m 14,6 km/h (3 Bft)
26.07.2014 12:38 21,7 C 24,4 C 84 % 1014,0 hPa 0,0 l/m 2 min 0 min 4,2 UV-I 538 W/m 14,6 km/h (3 Bft)
26.07.2014 12:40 21,8 C 24,4 C 82 % 1014,0 hPa 0,0 l/m 2 min 0 min 2,7 UV-I 573 W/m 10,5 km/h (2 Bft)
26.07.2014 12:42 22,2 C 25,0 C 84 % 1014,1 hPa 0,0 l/m 2 min 0 min 3,5 UV-I 707 W/m 10,5 km/h (2 Bft)
26.07.2014 12:44 22,1 C 24,4 C 80 % 1014,0 hPa 0,0 l/m 2 min 0 min 3,0 UV-I 837 W/m 10,5 km/h (2 Bft)
26.07.2014 12:46 22,1 C 24,4 C 81 % 1014,0 hPa 0,0 l/m 2 min 0 min 3,5 UV-I 628 W/m 6,3 km/h (2 Bft)
26.07.2014 12:48 22,1 C 24,4 C 82 % 1014,0 hPa 0,0 l/m 2 min 0 min 2,3 UV-I 512 W/m 8,4 km/h (2 Bft)
26.07.2014 12:50 22,2 C 24,4 C 82 % 1014,0 hPa 0,0 l/m 2 min 0 min 2,9 UV-I 526 W/m 8,4 km/h (2 Bft)
26.07.2014 12:52 22,3 C 24,4 C 80 % 1014,0 hPa 0,0 l/m 2 min 0 min 2,2 UV-I 751 W/m 14,6 km/h (3 Bft)
26.07.2014 12:54 22,3 C 23,3 C 80 % 1014,0 hPa 0,0 l/m 2 min 0 min 1,4 UV-I 469 W/m 8,4 km/h (2 Bft)
26.07.2014 12:56 22,2 C 23,3 C 81 % 1014,0 hPa 0,0 l/m 0 min 0 min 1,4 UV-I 341 W/m 8,4 km/h (2 Bft)
26.07.2014 12:58 22,1 C 22,8 C 81 % 1014,0 hPa 0,0 l/m 2 min 0 min 1,8 UV-I 417 W/m 8,4 km/h (2 Bft)
26.07.2014 13:00 22,0 C 23,3 C 80 % 1013,9 hPa 0,0 l/m 2 min 0 min 2,7 UV-I 464 W/m 10,5 km/h (2 Bft)
26.07.2014 13:02 21,9 C 22,8 C 80 % 1013,9 hPa 0,0 l/m 2 min 0 min 2,3 UV-I 484 W/m 10,5 km/h (2 Bft)
26.07.2014 13:04 21,9 C 23,3 C 81 % 1013,9 hPa 0,0 l/m 2 min 0 min 2,9 UV-I 422 W/m 8,4 km/h (2 Bft)
26.07.2014 13:06 22,1 C 22,8 C 81 % 1013,9 hPa 0,0 l/m 0 min 0 min 2,0 UV-I 407 W/m 6,3 km/h (2 Bft)
26.07.2014 13:08 21,8 C 22,2 C 79 % 1013,8 hPa 0,0 l/m 0 min 0 min 1,6 UV-I 315 W/m 4,2 km/h (1 Bft)
26.07.2014 13:10 21,7 C 22,2 C 81 % 1013,8 hPa 0,0 l/m 0 min 0 min 1,4 UV-I 271 W/m 8,4 km/h (2 Bft)
26.07.2014 13:12 21,7 C 22,2 C 81 % 1013,8 hPa 0,0 l/m 0 min 0 min 1,6 UV-I 314 W/m 10,5 km/h (2 Bft)
26.07.2014 13:14 21,8 C 22,8 C 81 % 1013,8 hPa 0,0 l/m 0 min 0 min 1,9 UV-I 331 W/m 8,4 km/h (2 Bft)
26.07.2014 13:16 21,9 C 22,2 C 80 % 1013,7 hPa 0,0 l/m 0 min 0 min 1,8 UV-I 309 W/m 10,5 km/h (2 Bft)
26.07.2014 13:18 21,9 C 22,8 C 81 % 1013,7 hPa 0,0 l/m 2 min 0 min 3,1 UV-I 423 W/m 18,8 km/h (3 Bft)
26.07.2014 13:20 22,2 C 23,3 C 81 % 1013,7 hPa 0,0 l/m 2 min 0 min 3,9 UV-I 631 W/m 10,5 km/h (2 Bft)
26.07.2014 13:22 22,2 C 22,8 C 80 % 1013,6 hPa 0,0 l/m 2 min 0 min 2,6 UV-I 615 W/m 8,4 km/h (2 Bft)
26.07.2014 13:24 22,1 C 22,8 C 80 % 1013,6 hPa 0,0 l/m 0 min 0 min 2,3 UV-I 342 W/m 12,6 km/h (3 Bft)
26.07.2014 13:26 21,9 C 22,8 C 80 % 1013,6 hPa 0,0 l/m 0 min 0 min 2,9 UV-I 338 W/m 10,5 km/h (2 Bft)
26.07.2014 13:28 22,0 C 22,8 C 81 % 1013,6 hPa 0,0 l/m 0 min 0 min 2,6 UV-I 338 W/m 8,4 km/h (2 Bft)
26.07.2014 13:30 22,1 C 22,8 C 80 % 1013,6 hPa 0,0 l/m 0 min 0 min 2,4 UV-I 325 W/m 10,5 km/h (2 Bft)
26.07.2014 13:32 22,0 C 22,8 C 80 % 1013,6 hPa 0,0 l/m 0 min 0 min 2,2 UV-I 304 W/m 10,5 km/h (2 Bft)
26.07.2014 13:34 21,9 C 22,2 C 79 % 1013,6 hPa 0,0 l/m 0 min 0 min 2,3 UV-I 347 W/m 8,4 km/h (2 Bft)
26.07.2014 13:36 22,0 C 22,8 C 81 % 1013,5 hPa 0,0 l/m 0 min 0 min 3,1 UV-I 396 W/m 10,5 km/h (2 Bft)
26.07.2014 13:38 22,0 C 22,2 C 80 % 1013,6 hPa 0,0 l/m 0 min 0 min 2,3 UV-I 371 W/m 0,0 km/h (0 Bft)
26.07.2014 13:40 22,1 C 22,8 C 80 % 1013,5 hPa 0,0 l/m 0 min 0 min 2,6 UV-I 309 W/m 0,0 km/h (0 Bft)
26.07.2014 13:42 22,3 C 22,8 C 82 % 1013,5 hPa 0,0 l/m 0 min 0 min 2,3 UV-I 338 W/m 8,4 km/h (2 Bft)
26.07.2014 13:44 22,5 C 22,8 C 79 % 1013,5 hPa 0,0 l/m 0 min 0 min 3,6 UV-I 322 W/m 6,3 km/h (2 Bft)
26.07.2014 13:46 22,4 C 22,8 C 78 % 1013,5 hPa 0,0 l/m 2 min 0 min 3,3 UV-I 724 W/m 10,5 km/h (2 Bft)
26.07.2014 13:48 22,2 C 22,2 C 78 % 1013,5 hPa 0,0 l/m 2 min 0 min 3,3 UV-I 604 W/m 6,3 km/h (2 Bft)
26.07.2014 13:50 22,2 C 22,8 C 80 % 1013,4 hPa 0,0 l/m 0 min 0 min 3,6 UV-I 313 W/m 10,5 km/h (2 Bft)
26.07.2014 13:52 22,4 C 22,8 C 79 % 1013,5 hPa 0,0 l/m 2 min 0 min 4,6 UV-I 864 W/m 8,4 km/h (2 Bft)
26.07.2014 13:54 22,6 C 22,8 C 80 % 1013,5 hPa 0,0 l/m 2 min 0 min 4,7 UV-I 846 W/m 8,4 km/h (2 Bft)
26.07.2014 13:56 23,0 C 23,3 C 77 % 1013,5 hPa 0,0 l/m 2 min 0 min 4,6 UV-I 823 W/m 8,4 km/h (2 Bft)
26.07.2014 13:58 23,3 C 22,8 C 78 % 1013,5 hPa 0,0 l/m 2 min 0 min 2,2 UV-I 450 W/m 0,0 km/h (0 Bft)
26.07.2014 14:00 23,0 C 22,8 C 75 % 1013,4 hPa 0,0 l/m 0 min 0 min 1,8 UV-I 174 W/m 0,0 km/h (0 Bft)
26.07.2014 14:02 22,8 C 22,2 C 77 % 1013,4 hPa 0,0 l/m 0 min 0 min 1,9 UV-I 202 W/m 12,6 km/h (3 Bft)
26.07.2014 14:04 22,6 C 22,2 C 77 % 1013,4 hPa 0,0 l/m 0 min 0 min 2,2 UV-I 250 W/m 6,3 km/h (2 Bft)
26.07.2014 14:06 22,4 C 22,2 C 79 % 1013,4 hPa 0,0 l/m 0 min 0 min 2,1 UV-I 213 W/m 0,0 km/h (0 Bft)
26.07.2014 14:08 22,5 C 22,2 C 80 % 1013,4 hPa 0,0 l/m 0 min 0 min 2,0 UV-I 211 W/m 0,0 km/h (0 Bft)
26.07.2014 14:10 22,6 C 22,2 C 79 % 1013,4 hPa 0,0 l/m 0 min 0 min 2,1 UV-I 247 W/m 0,0 km/h (0 Bft)
26.07.2014 14:12 22,6 C 22,8 C 77 % 1013,4 hPa 0,0 l/m 0 min 0 min 2,5 UV-I 286 W/m 0,0 km/h (0 Bft)
26.07.2014 14:14 22,7 C 22,8 C 75 % 1013,5 hPa 0,0 l/m 2 min 0 min 4,3 UV-I 576 W/m 10,5 km/h (2 Bft)
26.07.2014 14:16 22,8 C 23,3 C 74 % 1013,4 hPa 0,0 l/m 2 min 0 min 4,3 UV-I 812 W/m 10,5 km/h (2 Bft)
26.07.2014 14:18 23,2 C 23,3 C 75 % 1013,3 hPa 0,0 l/m 2 min 0 min 3,9 UV-I 812 W/m 6,3 km/h (2 Bft)
26.07.2014 14:20 23,4 C 23,3 C 74 % 1013,3 hPa 0,0 l/m 2 min 0 min 3,1 UV-I 725 W/m 0,0 km/h (0 Bft)
26.07.2014 14:22 23,7 C 23,9 C 75 % 1013,3 hPa 0,0 l/m 2 min 0 min 3,4 UV-I 623 W/m 0,0 km/h (0 Bft)
26.07.2014 14:24 23,9 C 23,9 C 75 % 1013,3 hPa 0,0 l/m 0 min 0 min 3,6 UV-I 257 W/m 0,0 km/h (0 Bft)
26.07.2014 14:26 24,2 C 24,4 C 72 % 1013,3 hPa 0,0 l/m 2 min 0 min 4,4 UV-I 774 W/m 8,4 km/h (2 Bft)
26.07.2014 14:28 24,2 C 24,4 C 71 % 1013,3 hPa 0,0 l/m 2 min 0 min 4,4 UV-I 779 W/m 10,5 km/h (2 Bft)
26.07.2014 14:30 24,6 C 24,4 C 71 % 1013,3 hPa 0,0 l/m 2 min 0 min 4,5 UV-I 809 W/m 12,6 km/h (3 Bft)
26.07.2014 14:32 24,7 C 24,4 C 69 % 1013,2 hPa 0,0 l/m 2 min 0 min 4,5 UV-I 822 W/m 10,5 km/h (2 Bft)
26.07.2014 14:34 24,8 C 25,0 C 66 % 1013,2 hPa 0,0 l/m 2 min 0 min 4,4 UV-I 799 W/m 10,5 km/h (2 Bft)
26.07.2014 14:36 24,9 C 25,0 C 65 % 1013,2 hPa 0,0 l/m 2 min 0 min 4,5 UV-I 799 W/m 14,6 km/h (3 Bft)
26.07.2014 14:38 24,9 C 25,0 C 66 % 1013,1 hPa 0,0 l/m 2 min 0 min 4,4 UV-I 784 W/m 12,6 km/h (3 Bft)
26.07.2014 14:40 24,8 C 24,4 C 66 % 1013,1 hPa 0,0 l/m 2 min 0 min 3,3 UV-I 662 W/m 12,6 km/h (3 Bft)
26.07.2014 14:42 24,8 C 24,4 C 69 % 1013,1 hPa 0,0 l/m 0 min 0 min 3,1 UV-I 246 W/m 8,4 km/h (2 Bft)
26.07.2014 14:44 24,7 C 24,4 C 66 % 1013,1 hPa 0,0 l/m 0 min 0 min 3,8 UV-I 253 W/m 2,1 km/h (1 Bft)
26.07.2014 14:46 24,8 C 24,4 C 68 % 1013,1 hPa 0,0 l/m 0 min 0 min 3,8 UV-I 253 W/m 8,4 km/h (2 Bft)
26.07.2014 14:48 25,1 C 25,0 C 67 % 1013,1 hPa 0,0 l/m 2 min 0 min 4,5 UV-I 712 W/m 10,5 km/h (2 Bft)
26.07.2014 14:50 25,1 C 25,0 C 65 % 1013,2 hPa 0,0 l/m 2 min 0 min 4,5 UV-I 794 W/m 12,6 km/h (3 Bft)
26.07.2014 14:52 25,3 C 25,0 C 64 % 1013,2 hPa 0,0 l/m 2 min 0 min 4,2 UV-I 736 W/m 14,6 km/h (3 Bft)
26.07.2014 14:54 25,7 C 25,0 C 62 % 1013,2 hPa 0,0 l/m 2 min 0 min 4,4 UV-I 761 W/m 16,7 km/h (3 Bft)
26.07.2014 14:56 25,6 C 25,0 C 59 % 1013,1 hPa 0,0 l/m 2 min 0 min 4,3 UV-I 753 W/m 12,6 km/h (3 Bft)
26.07.2014 14:58 25,3 C 25,0 C 60 % 1013,1 hPa 0,0 l/m 2 min 0 min 4,2 UV-I 740 W/m 14,6 km/h (3 Bft)
26.07.2014 15:00 25,2 C 25,0 C 63 % 1013,1 hPa 0,0 l/m 2 min 0 min 4,2 UV-I 740 W/m 16,7 km/h (3 Bft)
26.07.2014 15:02 25,4 C 25,0 C 62 % 1013,1 hPa 0,0 l/m 2 min 0 min 4,2 UV-I 737 W/m 12,6 km/h (3 Bft)
26.07.2014 15:04 25,3 C 25,0 C 64 % 1013,1 hPa 0,0 l/m 2 min 0 min 4,1 UV-I 731 W/m 14,6 km/h (3 Bft)
26.07.2014 15:06 25,3 C 25,0 C 63 % 1013,1 hPa 0,0 l/m 2 min 0 min 4,1 UV-I 738 W/m 14,6 km/h (3 Bft)
26.07.2014 15:08 25,5 C 25,0 C 64 % 1013,1 hPa 0,0 l/m 2 min 0 min 4,1 UV-I 737 W/m 14,6 km/h (3 Bft)
26.07.2014 15:10 25,6 C 25,0 C 61 % 1013,1 hPa 0,0 l/m 2 min 0 min 4,0 UV-I 727 W/m 16,7 km/h (3 Bft)
26.07.2014 15:12 25,6 C 25,0 C 64 % 1013,0 hPa 0,0 l/m 2 min 0 min 3,9 UV-I 715 W/m 8,4 km/h (2 Bft)
26.07.2014 15:14 25,8 C 25,0 C 63 % 1013,0 hPa 0,0 l/m 2 min 0 min 3,9 UV-I 715 W/m 12,6 km/h (3 Bft)
26.07.2014 15:16 26,0 C 25,6 C 64 % 1013,0 hPa 0,0 l/m 2 min 0 min 3,7 UV-I 712 W/m 14,6 km/h (3 Bft)
26.07.2014 15:18 25,9 C 25,0 C 62 % 1013,0 hPa 0,0 l/m 2 min 0 min 3,1 UV-I 672 W/m 14,6 km/h (3 Bft)
26.07.2014 15:20 25,5 C 25,0 C 62 % 1012,9 hPa 0,0 l/m 2 min 0 min 3,4 UV-I 702 W/m 8,4 km/h (2 Bft)
26.07.2014 15:22 25,8 C 25,0 C 65 % 1012,9 hPa 0,0 l/m 2 min 0 min 3,9 UV-I 724 W/m 8,4 km/h (2 Bft)
26.07.2014 15:24 26,1 C 25,6 C 64 % 1013,0 hPa 0,0 l/m 2 min 0 min 3,2 UV-I 711 W/m 14,6 km/h (3 Bft)
26.07.2014 15:26 26,2 C 25,6 C 65 % 1012,9 hPa 0,0 l/m 2 min 0 min 3,8 UV-I 715 W/m 14,6 km/h (3 Bft)
26.07.2014 15:28 26,4 C 25,6 C 62 % 1012,9 hPa 0,0 l/m 2 min 0 min 3,8 UV-I 715 W/m 20,9 km/h (4 Bft)
26.07.2014 15:30 26,3 C 25,6 C 61 % 1012,9 hPa 0,0 l/m 2 min 0 min 3,7 UV-I 702 W/m 14,6 km/h (3 Bft)
26.07.2014 15:32 26,3 C 25,6 C 61 % 1012,9 hPa 0,0 l/m 2 min 0 min 3,6 UV-I 692 W/m 20,9 km/h (4 Bft)
26.07.2014 15:34 26,3 C 25,6 C 63 % 1012,9 hPa 0,0 l/m 2 min 0 min 3,4 UV-I 697 W/m 18,8 km/h (3 Bft)
26.07.2014 15:36 26,2 C 25,6 C 61 % 1012,9 hPa 0,0 l/m 2 min 0 min 3,3 UV-I 686 W/m 12,6 km/h (3 Bft)
26.07.2014 15:38 26,2 C 25,6 C 64 % 1012,9 hPa 0,0 l/m 2 min 0 min 3,4 UV-I 695 W/m 10,5 km/h (2 Bft)
26.07.2014 15:40 25,9 C 25,6 C 61 % 1012,9 hPa 0,0 l/m 2 min 0 min 3,2 UV-I 681 W/m 10,5 km/h (2 Bft)
26.07.2014 15:42 25,6 C 25,0 C 61 % 1012,9 hPa 0,0 l/m 2 min 0 min 3,4 UV-I 675 W/m 4,2 km/h (1 Bft)
26.07.2014 15:44 25,5 C 25,0 C 61 % 1012,8 hPa 0,0 l/m 2 min 0 min 3,4 UV-I 680 W/m 0,0 km/h (0 Bft)
26.07.2014 15:46 25,6 C 25,0 C 61 % 1012,8 hPa 0,0 l/m 2 min 0 min 3,4 UV-I 684 W/m 10,5 km/h (2 Bft)
26.07.2014 15:48 25,8 C 25,6 C 64 % 1012,8 hPa 0,0 l/m 2 min 0 min 3,4 UV-I 672 W/m 8,4 km/h (2 Bft)
26.07.2014 15:50 26,0 C 25,6 C 62 % 1012,8 hPa 0,0 l/m 2 min 0 min 3,1 UV-I 667 W/m 14,6 km/h (3 Bft)
26.07.2014 15:52 26,1 C 25,6 C 62 % 1012,9 hPa 0,0 l/m 2 min 0 min 3,0 UV-I 625 W/m 12,6 km/h (3 Bft)
26.07.2014 15:54 26,1 C 25,6 C 60 % 1012,8 hPa 0,0 l/m 2 min 0 min 3,1 UV-I 664 W/m 10,5 km/h (2 Bft)
26.07.2014 15:56 26,1 C 25,6 C 62 % 1012,8 hPa 0,0 l/m 2 min 0 min 3,1 UV-I 669 W/m 8,4 km/h (2 Bft)
26.07.2014 15:58 25,8 C 25,6 C 61 % 1012,8 hPa 0,0 l/m 2 min 0 min 2,8 UV-I 686 W/m 10,5 km/h (2 Bft)
26.07.2014 16:00 25,8 C 25,6 C 62 % 1012,9 hPa 0,0 l/m 2 min 0 min 2,6 UV-I 689 W/m 6,3 km/h (2 Bft)
26.07.2014 16:02 25,8 C 25,6 C 63 % 1012,9 hPa 0,0 l/m 2 min 0 min 3,0 UV-I 686 W/m 8,4 km/h (2 Bft)
26.07.2014 16:04 25,8 C 25,6 C 62 % 1012,8 hPa 0,0 l/m 2 min 0 min 3,1 UV-I 690 W/m 12,6 km/h (3 Bft)
26.07.2014 16:06 25,7 C 25,6 C 61 % 1012,8 hPa 0,0 l/m 2 min 0 min 3,0 UV-I 670 W/m 12,6 km/h (3 Bft)
26.07.2014 16:08 25,6 C 25,6 C 61 % 1012,8 hPa 0,0 l/m 2 min 0 min 2,9 UV-I 647 W/m 12,6 km/h (3 Bft)
26.07.2014 16:10 25,5 C 25,6 C 62 % 1012,8 hPa 0,0 l/m 2 min 0 min 2,9 UV-I 628 W/m 8,4 km/h (2 Bft)
26.07.2014 16:12 25,7 C 25,6 C 65 % 1012,8 hPa 0,0 l/m 2 min 0 min 2,9 UV-I 641 W/m 10,5 km/h (2 Bft)
26.07.2014 16:14 25,8 C 26,1 C 62 % 1012,9 hPa 0,0 l/m 2 min 0 min 2,8 UV-I 641 W/m 10,5 km/h (2 Bft)
26.07.2014 16:16 25,7 C 25,6 C 63 % 1012,9 hPa 0,0 l/m 2 min 0 min 2,8 UV-I 638 W/m 16,7 km/h (3 Bft)
26.07.2014 16:18 26,0 C 27,2 C 63 % 1012,8 hPa 0,0 l/m 2 min 0 min 2,8 UV-I 640 W/m 16,7 km/h (3 Bft)
26.07.2014 16:20 26,3 C 28,3 C 63 % 1012,9 hPa 0,0 l/m 2 min 0 min 2,7 UV-I 627 W/m 10,5 km/h (2 Bft)
26.07.2014 16:22 26,4 C 28,9 C 62 % 1012,9 hPa 0,0 l/m 2 min 0 min 2,6 UV-I 607 W/m 10,5 km/h (2 Bft)
26.07.2014 16:24 26,2 C 29,4 C 59 % 1012,9 hPa 0,0 l/m 2 min 0 min 2,5 UV-I 606 W/m 10,5 km/h (2 Bft)
26.07.2014 16:26 26,2 C 30,0 C 61 % 1012,9 hPa 0,0 l/m 2 min 0 min 2,6 UV-I 621 W/m 10,5 km/h (2 Bft)
26.07.2014 16:28 26,2 C 30,6 C 60 % 1012,9 hPa 0,0 l/m 2 min 0 min 2,6 UV-I 640 W/m 6,3 km/h (2 Bft)
26.07.2014 16:30 26,4 C 31,1 C 60 % 1012,9 hPa 0,0 l/m 2 min 0 min 2,6 UV-I 647 W/m 12,6 km/h (3 Bft)
26.07.2014 16:32 26,3 C 31,1 C 60 % 1012,8 hPa 0,0 l/m 2 min 0 min 2,5 UV-I 642 W/m 6,3 km/h (2 Bft)
26.07.2014 16:34 26,5 C 30,0 C 60 % 1012,8 hPa 0,0 l/m 2 min 0 min 2,2 UV-I 637 W/m 6,3 km/h (2 Bft)
26.07.2014 16:36 26,2 C 28,3 C 60 % 1012,8 hPa 0,0 l/m 0 min 0 min 1,9 UV-I 220 W/m 6,3 km/h (2 Bft)
26.07.2014 16:38 25,9 C 28,3 C 60 % 1012,7 hPa 0,0 l/m 0 min 0 min 2,0 UV-I 200 W/m 2,1 km/h (1 Bft)
26.07.2014 16:40 25,7 C 29,4 C 61 % 1012,8 hPa 0,0 l/m 2 min 0 min 2,2 UV-I 369 W/m 6,3 km/h (2 Bft)
26.07.2014 16:42 25,8 C 28,9 C 61 % 1012,7 hPa 0,0 l/m 2 min 0 min 1,9 UV-I 550 W/m 8,4 km/h (2 Bft)
26.07.2014 16:44 25,9 C 29,4 C 64 % 1012,7 hPa 0,0 l/m 2 min 0 min 2,1 UV-I 550 W/m 12,6 km/h (3 Bft)
26.07.2014 16:46 26,2 C 30,0 C 62 % 1012,7 hPa 0,0 l/m 2 min 0 min 2,2 UV-I 555 W/m 10,5 km/h (2 Bft)
26.07.2014 16:48 26,2 C 30,6 C 62 % 1012,7 hPa 0,0 l/m 2 min 0 min 2,2 UV-I 580 W/m 8,4 km/h (2 Bft)
26.07.2014 16:50 26,3 C 31,1 C 62 % 1012,7 hPa 0,0 l/m 2 min 0 min 2,2 UV-I 578 W/m 10,5 km/h (2 Bft)
26.07.2014 16:52 26,4 C 31,1 C 60 % 1012,8 hPa 0,0 l/m 2 min 0 min 2,1 UV-I 573 W/m 10,5 km/h (2 Bft)
26.07.2014 16:54 26,4 C 30,6 C 61 % 1012,7 hPa 0,0 l/m 2 min 0 min 2,1 UV-I 567 W/m 6,3 km/h (2 Bft)
26.07.2014 16:56 26,2 C 30,0 C 59 % 1012,8 hPa 0,0 l/m 2 min 0 min 2,0 UV-I 563 W/m 0,0 km/h (0 Bft)
26.07.2014 16:58 26,2 C 28,3 C 62 % 1012,7 hPa 0,0 l/m 2 min 0 min 2,0 UV-I 571 W/m 2,1 km/h (1 Bft)
26.07.2014 17:00 26,2 C 27,8 C 61 % 1012,8 hPa 0,0 l/m 2 min 0 min 2,0 UV-I 572 W/m 0,0 km/h (0 Bft)
26.07.2014 17:02 26,5 C 27,2 C 60 % 1012,8 hPa 0,0 l/m 2 min 0 min 2,0 UV-I 584 W/m 10,5 km/h (2 Bft)
26.07.2014 17:04 26,4 C 26,1 C 59 % 1012,7 hPa 0,0 l/m 2 min 0 min 2,0 UV-I 570 W/m 14,6 km/h (3 Bft)
26.07.2014 17:06 26,6 C 26,1 C 60 % 1012,7 hPa 0,0 l/m 2 min 0 min 1,9 UV-I 540 W/m 8,4 km/h (2 Bft)
26.07.2014 17:08 26,5 C 26,1 C 60 % 1012,7 hPa 0,0 l/m 2 min 0 min 1,8 UV-I 531 W/m 6,3 km/h (2 Bft)
26.07.2014 17:10 26,4 C 25,6 C 59 % 1012,7 hPa 0,0 l/m 2 min 0 min 1,8 UV-I 523 W/m 10,5 km/h (2 Bft)
26.07.2014 17:12 26,4 C 25,6 C 61 % 1012,7 hPa 0,0 l/m 2 min 0 min 1,7 UV-I 521 W/m 6,3 km/h (2 Bft)
26.07.2014 17:14 26,4 C 25,6 C 60 % 1012,7 hPa 0,0 l/m 2 min 0 min 1,7 UV-I 521 W/m 8,4 km/h (2 Bft)
26.07.2014 17:16 26,5 C 25,6 C 61 % 1012,7 hPa 0,0 l/m 2 min 0 min 1,7 UV-I 513 W/m 8,4 km/h (2 Bft)
26.07.2014 17:18 26,4 C 25,6 C 61 % 1012,7 hPa 0,0 l/m 2 min 0 min 1,5 UV-I 504 W/m 14,6 km/h (3 Bft)
26.07.2014 17:20 26,5 C 25,6 C 61 % 1012,7 hPa 0,0 l/m 2 min 0 min 1,3 UV-I 493 W/m 8,4 km/h (2 Bft)
26.07.2014 17:22 26,4 C 25,6 C 61 % 1012,8 hPa 0,0 l/m 2 min 0 min 1,2 UV-I 498 W/m 8,4 km/h (2 Bft)
26.07.2014 17:24 26,3 C 25,0 C 60 % 1012,8 hPa 0,0 l/m 2 min 0 min 1,1 UV-I 486 W/m 6,3 km/h (2 Bft)
26.07.2014 17:26 26,4 C 25,0 C 61 % 1012,7 hPa 0,0 l/m 2 min 0 min 1,1 UV-I 469 W/m 6,3 km/h (2 Bft)
26.07.2014 17:28 26,2 C 25,0 C 60 % 1012,7 hPa 0,0 l/m 2 min 0 min 1,0 UV-I 292 W/m 12,6 km/h (3 Bft)
26.07.2014 17:30 26,0 C 24,4 C 61 % 1012,7 hPa 0,0 l/m 2 min 0 min 1,0 UV-I 332 W/m 10,5 km/h (2 Bft)
26.07.2014 17:32 26,0 C 24,4 C 62 % 1012,7 hPa 0,0 l/m 2 min 0 min 0,9 UV-I 438 W/m 6,3 km/h (2 Bft)
26.07.2014 17:34 25,7 C 24,4 C 60 % 1012,7 hPa 0,0 l/m 0 min 0 min 0,9 UV-I 142 W/m 4,2 km/h (1 Bft)
26.07.2014 17:36 25,4 C 24,4 C 61 % 1012,8 hPa 0,0 l/m 0 min 0 min 0,8 UV-I 124 W/m 6,3 km/h (2 Bft)
26.07.2014 17:38 25,2 C 23,9 C 62 % 1012,7 hPa 0,0 l/m 0 min 0 min 0,8 UV-I 113 W/m 8,4 km/h (2 Bft)
26.07.2014 17:40 25,1 C 23,9 C 63 % 1012,7 hPa 0,0 l/m 0 min 0 min 0,7 UV-I 110 W/m 6,3 km/h (2 Bft)
26.07.2014 17:42 25,0 C 23,9 C 63 % 1012,7 hPa 0,0 l/m 0 min 0 min 0,7 UV-I 115 W/m 8,4 km/h (2 Bft)
26.07.2014 17:44 24,9 C 23,9 C 62 % 1012,7 hPa 0,0 l/m 0 min 0 min 0,6 UV-I 124 W/m 0,0 km/h (0 Bft)
26.07.2014 17:46 24,9 C 23,9 C 63 % 1012,7 hPa 0,0 l/m 0 min 0 min 0,6 UV-I 170 W/m 0,0 km/h (0 Bft)
26.07.2014 17:48 25,1 C 23,9 C 62 % 1012,8 hPa 0,0 l/m 2 min 0 min 0,7 UV-I 452 W/m 0,0 km/h (0 Bft)
26.07.2014 17:50 25,1 C 24,4 C 63 % 1012,7 hPa 0,0 l/m 2 min 0 min 0,7 UV-I 480 W/m 8,4 km/h (2 Bft)
26.07.2014 17:52 25,4 C 24,4 C 63 % 1012,6 hPa 0,0 l/m 2 min 0 min 0,7 UV-I 303 W/m 8,4 km/h (2 Bft)
26.07.2014 17:54 25,4 C 24,4 C 63 % 1012,7 hPa 0,0 l/m 0 min 0 min 0,7 UV-I 160 W/m 8,4 km/h (2 Bft)
26.07.2014 17:56 25,4 C 24,4 C 64 % 1012,7 hPa 0,0 l/m 0 min 0 min 0,6 UV-I 153 W/m 0,0 km/h (0 Bft)
26.07.2014 17:58 25,4 C 23,9 C 63 % 1012,7 hPa 0,0 l/m 0 min 0 min 0,6 UV-I 149 W/m 2,1 km/h (1 Bft)
26.07.2014 18:00 25,3 C 23,9 C 63 % 1012,7 hPa 0,0 l/m 0 min 0 min 0,5 UV-I 142 W/m 0,0 km/h (0 Bft)
26.07.2014 18:02 25,2 C 23,9 C 64 % 1012,7 hPa 0,0 l/m 0 min 0 min 0,5 UV-I 136 W/m 2,1 km/h (1 Bft)
26.07.2014 18:06 25,3 C 23,9 C 63 % 1012,7 hPa 0,0 l/m 2 min 0 min 0,5 UV-I 330 W/m 0,0 km/h (0 Bft)
26.07.2014 18:08 25,4 C 23,9 C 65 % 1012,7 hPa 0,0 l/m 2 min 0 min 0,5 UV-I 403 W/m 6,3 km/h (2 Bft)
26.07.2014 18:10 25,7 C 24,4 C 64 % 1012,7 hPa 0,0 l/m 2 min 0 min 0,5 UV-I 386 W/m 2,1 km/h (1 Bft)
26.07.2014 18:12 25,7 C 24,4 C 64 % 1012,7 hPa 0,0 l/m 2 min 0 min 0,5 UV-I 395 W/m 2,1 km/h (1 Bft)
26.07.2014 18:14 25,7 C 24,4 C 61 % 1012,7 hPa 0,0 l/m 2 min 0 min 0,5 UV-I 408 W/m 8,4 km/h (2 Bft)
26.07.2014 18:16 25,7 C 24,4 C 62 % 1012,7 hPa 0,0 l/m 2 min 0 min 0,5 UV-I 406 W/m 8,4 km/h (2 Bft)
26.07.2014 18:18 25,7 C 24,4 C 63 % 1012,7 hPa 0,0 l/m 2 min 0 min 0,5 UV-I 391 W/m 8,4 km/h (2 Bft)
26.07.2014 18:20 25,8 C 24,4 C 62 % 1012,6 hPa 0,0 l/m 2 min 0 min 0,5 UV-I 368 W/m 6,3 km/h (2 Bft)
26.07.2014 18:22 25,7 C 24,4 C 62 % 1012,6 hPa 0,0 l/m 2 min 0 min 0,0 UV-I 348 W/m 0,0 km/h (0 Bft)
26.07.2014 18:24 25,7 C 24,4 C 62 % 1012,6 hPa 0,0 l/m 2 min 0 min 0,0 UV-I 330 W/m 8,4 km/h (2 Bft)
26.07.2014 18:26 25,8 C 23,9 C 63 % 1012,6 hPa 0,0 l/m 2 min 0 min 0,0 UV-I 323 W/m 10,5 km/h (2 Bft)
26.07.2014 18:28 25,7 C 23,9 C 63 % 1012,7 hPa 0,0 l/m 2 min 0 min 0,0 UV-I 328 W/m 10,5 km/h (2 Bft)
26.07.2014 18:30 25,5 C 22,8 C 66 % 1012,7 hPa 0,0 l/m 2 min 0 min 0,0 UV-I 326 W/m 10,5 km/h (2 Bft)
26.07.2014 18:32 25,3 C 22,8 C 65 % 1012,7 hPa 0,0 l/m 2 min 0 min 0,0 UV-I 321 W/m 8,4 km/h (2 Bft)
26.07.2014 18:34 25,1 C 22,2 C 64 % 1012,7 hPa 0,0 l/m 2 min 0 min 0,0 UV-I 264 W/m 8,4 km/h (2 Bft)
26.07.2014 18:36 25,1 C 21,7 C 65 % 1012,7 hPa 0,0 l/m 2 min 0 min 0,0 UV-I 289 W/m 12,6 km/h (3 Bft)
26.07.2014 18:38 24,9 C 20,6 C 67 % 1012,6 hPa 0,0 l/m 2 min 0 min 0,0 UV-I 312 W/m 10,5 km/h (2 Bft)
26.07.2014 18:40 24,8 C 20,6 C 67 % 1012,7 hPa 0,0 l/m 2 min 0 min 0,0 UV-I 318 W/m 8,4 km/h (2 Bft)
26.07.2014 18:42 24,7 C 20,0 C 68 % 1012,6 hPa 0,0 l/m 2 min 0 min 0,0 UV-I 312 W/m 2,1 km/h (1 Bft)
26.07.2014 18:44 24,6 C 20,0 C 68 % 1012,6 hPa 0,0 l/m 2 min 0 min 0,0 UV-I 296 W/m 4,2 km/h (1 Bft)
26.07.2014 18:46 24,5 C 19,4 C 69 % 1012,6 hPa 0,0 l/m 0 min 0 min 0,0 UV-I 180 W/m 6,3 km/h (2 Bft)
26.07.2014 18:48 24,4 C 19,4 C 67 % 1012,6 hPa 0,0 l/m 0 min 0 min 0,0 UV-I 121 W/m 0,0 km/h (0 Bft)
26.07.2014 18:50 24,2 C 18,9 C 67 % 1012,7 hPa 0,0 l/m 2 min 0 min 0,0 UV-I 234 W/m 2,1 km/h (1 Bft)
26.07.2014 18:52 24,2 C 18,9 C 68 % 1012,6 hPa 0,0 l/m 2 min 0 min 0,0 UV-I 212 W/m 6,3 km/h (2 Bft)
26.07.2014 18:54 24,2 C 18,9 C 67 % 1012,7 hPa 0,0 l/m 0 min 0 min 0,0 UV-I 138 W/m 4,2 km/h (1 Bft)
26.07.2014 18:56 24,3 C 18,9 C 66 % 1012,6 hPa 0,0 l/m 0 min 0 min 0,0 UV-I 131 W/m 2,1 km/h (1 Bft)
26.07.2014 18:58 24,4 C 18,9 C 67 % 1012,6 hPa 0,0 l/m 2 min 0 min 0,0 UV-I 181 W/m 2,1 km/h (1 Bft)
26.07.2014 19:00 24,4 C 18,9 C 66 % 1012,6 hPa 0,0 l/m 2 min 0 min 0,0 UV-I 243 W/m 0,0 km/h (0 Bft)
26.07.2014 19:02 24,4 C 18,9 C 69 % 1012,7 hPa 0,0 l/m 2 min 0 min 0,0 UV-I 217 W/m 0,0 km/h (0 Bft)
26.07.2014 19:04 24,4 C 18,3 C 65 % 1012,6 hPa 0,0 l/m 2 min 0 min 0,0 UV-I 240 W/m 0,0 km/h (0 Bft)
26.07.2014 19:06 24,6 C 18,3 C 67 % 1012,6 hPa 0,0 l/m 2 min 0 min 0,0 UV-I 236 W/m 2,1 km/h (1 Bft)
26.07.2014 19:08 24,6 C 18,3 C 67 % 1012,6 hPa 0,0 l/m 2 min 0 min 0,0 UV-I 232 W/m 8,4 km/h (2 Bft)
26.07.2014 19:10 24,5 C 18,3 C 68 % 1012,6 hPa 0,0 l/m 2 min 0 min 0,0 UV-I 177 W/m 8,4 km/h (2 Bft)
26.07.2014 19:12 24,3 C 18,3 C 68 % 1012,6 hPa 0,0 l/m 0 min 0 min 0,0 UV-I 98 W/m 2,1 km/h (1 Bft)
26.07.2014 19:14 24,3 C 18,3 C 68 % 1012,7 hPa 0,0 l/m 0 min 0 min 0,0 UV-I 112 W/m 6,3 km/h (2 Bft)
26.07.2014 19:16 24,4 C 18,3 C 68 % 1012,7 hPa 0,0 l/m 2 min 0 min 0,0 UV-I 166 W/m 8,4 km/h (2 Bft)
26.07.2014 19:18 24,3 C 18,3 C 69 % 1012,7 hPa 0,0 l/m 2 min 0 min 0,0 UV-I 190 W/m 2,1 km/h (1 Bft)
26.07.2014 19:20 24,2 C 18,3 C 69 % 1012,7 hPa 0,0 l/m 2 min 0 min 0,0 UV-I 190 W/m 0,0 km/h (0 Bft)
26.07.2014 19:22 24,2 C 18,3 C 69 % 1012,7 hPa 0,0 l/m 2 min 0 min 0,0 UV-I 173 W/m 8,4 km/h (2 Bft)
26.07.2014 19:24 24,2 C 18,3 C 68 % 1012,6 hPa 0,0 l/m 2 min 0 min 0,0 UV-I 155 W/m 6,3 km/h (2 Bft)
26.07.2014 19:26 24,2 C 18,3 C 70 % 1012,6 hPa 0,0 l/m 2 min 0 min 0,0 UV-I 150 W/m 8,4 km/h (2 Bft)
26.07.2014 19:28 24,2 C 18,3 C 68 % 1012,7 hPa 0,0 l/m 0 min 0 min 0,0 UV-I 103 W/m 12,6 km/h (3 Bft)
26.07.2014 19:30 24,2 C 18,3 C 67 % 1012,7 hPa 0,0 l/m 0 min 0 min 0,0 UV-I 132 W/m 12,6 km/h (3 Bft)
26.07.2014 19:32 24,2 C 18,3 C 67 % 1012,7 hPa 0,0 l/m 2 min 0 min 0,0 UV-I 142 W/m 12,6 km/h (3 Bft)
26.07.2014 19:34 24,3 C 18,3 C 69 % 1012,7 hPa 0,0 l/m 0 min 0 min 0,0 UV-I 119 W/m 4,2 km/h (1 Bft)
26.07.2014 19:36 24,3 C 18,3 C 68 % 1012,7 hPa 0,0 l/m 0 min 0 min 0,0 UV-I 111 W/m 6,3 km/h (2 Bft)
26.07.2014 19:38 24,3 C 18,3 C 70 % 1012,7 hPa 0,0 l/m 2 min 0 min 0,0 UV-I 131 W/m 0,0 km/h (0 Bft)
26.07.2014 19:40 24,2 C 18,3 C 68 % 1012,7 hPa 0,0 l/m 0 min 0 min 0,0 UV-I 122 W/m 6,3 km/h (2 Bft)
26.07.2014 19:42 24,3 C 18,3 C 67 % 1012,8 hPa 0,0 l/m 0 min 0 min 0,0 UV-I 119 W/m 0,0 km/h (0 Bft)
26.07.2014 19:44 24,3 C 18,3 C 69 % 1012,8 hPa 0,0 l/m 0 min 0 min 0,0 UV-I 107 W/m 0,0 km/h (0 Bft)
26.07.2014 19:46 24,2 C 18,3 C 69 % 1012,8 hPa 0,0 l/m 0 min 0 min 0,0 UV-I 89 W/m 0,0 km/h (0 Bft)
26.07.2014 19:48 24,2 C 18,3 C 68 % 1012,8 hPa 0,0 l/m 0 min 0 min 0,0 UV-I 60 W/m 8,4 km/h (2 Bft)
26.07.2014 19:50 24,2 C 18,3 C 68 % 1012,8 hPa 0,0 l/m 0 min 0 min 0,0 UV-I 80 W/m 0,0 km/h (0 Bft)
26.07.2014 19:52 24,2 C 18,3 C 69 % 1012,9 hPa 0,0 l/m 0 min 0 min 0,0 UV-I 100 W/m 0,0 km/h (0 Bft)
26.07.2014 19:54 24,2 C 18,9 C 68 % 1012,9 hPa 0,0 l/m 0 min 0 min 0,0 UV-I 100 W/m 0,0 km/h (0 Bft)
26.07.2014 19:56 24,2 C 18,9 C 69 % 1012,8 hPa 0,0 l/m 0 min 0 min 0,0 UV-I 75 W/m 0,0 km/h (0 Bft)
26.07.2014 19:58 24,1 C 18,9 C 70 % 1012,9 hPa 0,0 l/m 0 min 0 min 0,0 UV-I 86 W/m 0,0 km/h (0 Bft)
26.07.2014 20:00 24,0 C 18,3 C 69 % 1012,8 hPa 0,0 l/m 0 min 0 min 0,0 UV-I 80 W/m 0,0 km/h (0 Bft)
26.07.2014 20:02 23,9 C 17,8 C 70 % 1012,8 hPa 0,0 l/m 0 min 0 min 0,0 UV-I 67 W/m 0,0 km/h (0 Bft)
26.07.2014 20:04 23,6 C 17,8 C 73 % 1012,9 hPa 0,0 l/m 0 min 0 min 0,0 UV-I 50 W/m 0,0 km/h (0 Bft)
26.07.2014 20:06 23,4 C 17,8 C 72 % 1012,9 hPa 0,0 l/m 0 min 0 min 0,0 UV-I 47 W/m 0,0 km/h (0 Bft)
26.07.2014 20:08 23,4 C 17,8 C 72 % 1012,9 hPa 0,0 l/m 0 min 0 min 0,0 UV-I 48 W/m 0,0 km/h (0 Bft)
26.07.2014 20:10 23,6 C 17,8 C 70 % 1012,9 hPa 0,0 l/m 0 min 0 min 0,0 UV-I 51 W/m 2,1 km/h (1 Bft)
26.07.2014 20:12 23,7 C 17,8 C 70 % 1012,9 hPa 0,0 l/m 0 min 0 min 0,0 UV-I 47 W/m 0,0 km/h (0 Bft)
26.07.2014 20:14 23,9 C 17,8 C 69 % 1013,0 hPa 0,0 l/m 0 min 0 min 0,0 UV-I 46 W/m 0,0 km/h (0 Bft)
26.07.2014 20:16 24,0 C 17,8 C 68 % 1013,0 hPa 0,0 l/m 0 min 0 min 0,0 UV-I 43 W/m 2,1 km/h (1 Bft)
26.07.2014 20:18 24,0 C 17,8 C 68 % 1013,0 hPa 0,0 l/m 0 min 0 min 0,0 UV-I 47 W/m 0,0 km/h (0 Bft)
26.07.2014 20:20 24,0 C 17,8 C 69 % 1013,0 hPa 0,0 l/m 0 min 0 min 0,0 UV-I 47 W/m 0,0 km/h (0 Bft)
26.07.2014 20:22 23,9 C 17,8 C 70 % 1012,9 hPa 0,0 l/m 0 min 0 min 0,0 UV-I 44 W/m 2,1 km/h (1 Bft)
26.07.2014 20:24 23,9 C 18,3 C 70 % 1012,9 hPa 0,0 l/m 0 min 0 min 0,0 UV-I 40 W/m 0,0 km/h (0 Bft)
26.07.2014 20:26 23,9 C 18,3 C 70 % 1012,9 hPa 0,0 l/m 0 min 0 min 0,0 UV-I 37 W/m 0,0 km/h (0 Bft)
26.07.2014 20:28 23,9 C 18,3 C 70 % 1012,9 hPa 0,0 l/m 0 min 0 min 0,0 UV-I 32 W/m 0,0 km/h (0 Bft)
26.07.2014 20:30 23,9 C 18,3 C 70 % 1013,0 hPa 0,0 l/m 0 min 0 min 0,0 UV-I 29 W/m 0,0 km/h (0 Bft)
26.07.2014 20:32 23,8 C 17,8 C 71 % 1013,0 hPa 0,0 l/m 0 min 0 min 0,0 UV-I 28 W/m 0,0 km/h (0 Bft)
26.07.2014 20:34 23,8 C 17,8 C 71 % 1013,0 hPa 0,0 l/m 0 min 0 min 0,0 UV-I 30 W/m 0,0 km/h (0 Bft)
26.07.2014 20:36 23,7 C 17,8 C 72 % 1012,9 hPa 0,0 l/m 0 min 0 min 0,0 UV-I 30 W/m 0,0 km/h (0 Bft)
26.07.2014 20:38 23,7 C 17,8 C 72 % 1012,9 hPa 0,0 l/m 0 min 0 min 0,0 UV-I 30 W/m 0,0 km/h (0 Bft)
26.07.2014 20:40 23,7 C 17,8 C 72 % 1012,9 hPa 0,0 l/m 0 min 0 min 0,0 UV-I 30 W/m 0,0 km/h (0 Bft)
26.07.2014 20:42 23,6 C 17,8 C 73 % 1013,0 hPa 0,0 l/m 0 min 0 min 0,0 UV-I 30 W/m 0,0 km/h (0 Bft)
26.07.2014 20:44 23,5 C 17,8 C 74 % 1013,0 hPa 0,0 l/m 0 min 0 min 0,0 UV-I 28 W/m 0,0 km/h (0 Bft)
26.07.2014 20:46 23,4 C 17,8 C 75 % 1013,0 hPa 0,0 l/m 0 min 0 min 0,0 UV-I 26 W/m 0,0 km/h (0 Bft)
26.07.2014 20:48 23,2 C 17,8 C 76 % 1013,0 hPa 0,0 l/m 0 min 0 min 0,0 UV-I 23 W/m 0,0 km/h (0 Bft)
26.07.2014 20:50 23,0 C 17,8 C 76 % 1013,0 hPa 0,0 l/m 0 min 0 min 0,0 UV-I 20 W/m 0,0 km/h (0 Bft)
26.07.2014 20:52 22,9 C 17,8 C 77 % 1013,0 hPa 0,0 l/m 0 min 0 min 0,0 UV-I 18 W/m 0,0 km/h (0 Bft)
26.07.2014 20:54 22,8 C 17,8 C 77 % 1013,1 hPa 0,0 l/m 0 min 0 min 0,0 UV-I 16 W/m 0,0 km/h (0 Bft)
26.07.2014 20:56 22,8 C 17,8 C 78 % 1013,1 hPa 0,0 l/m 0 min 0 min 0,0 UV-I 16 W/m 0,0 km/h (0 Bft)
26.07.2014 20:58 22,7 C 17,8 C 78 % 1013,1 hPa 0,0 l/m 0 min 0 min 0,0 UV-I 15 W/m 0,0 km/h (0 Bft)
26.07.2014 21:00 22,7 C 17,8 C 78 % 1013,2 hPa 0,0 l/m 0 min 0 min 0,0 UV-I 13 W/m 0,0 km/h (0 Bft)
26.07.2014 21:02 22,7 C 17,8 C 78 % 1013,1 hPa 0,0 l/m 0 min 0 min 0,0 UV-I 12 W/m 0,0 km/h (0 Bft)
26.07.2014 21:04 22,6 C 17,8 C 79 % 1013,2 hPa 0,0 l/m 0 min 0 min 0,0 UV-I 11 W/m 0,0 km/h (0 Bft)
26.07.2014 21:06 22,5 C 17,8 C 79 % 1013,2 hPa 0,0 l/m 0 min 0 min 0,0 UV-I 11 W/m 0,0 km/h (0 Bft)
26.07.2014 21:08 22,5 C 17,8 C 80 % 1013,2 hPa 0,0 l/m 0 min 0 min 0,0 UV-I 11 W/m 0,0 km/h (0 Bft)
26.07.2014 21:10 22,4 C 17,8 C 80 % 1013,2 hPa 0,0 l/m 0 min 0 min 0,0 UV-I 11 W/m 0,0 km/h (0 Bft)
26.07.2014 21:12 22,3 C 17,8 C 80 % 1013,2 hPa 0,0 l/m 0 min 0 min 0,0 UV-I 9 W/m 0,0 km/h (0 Bft)
26.07.2014 21:14 22,3 C 17,8 C 80 % 1013,2 hPa 0,0 l/m 0 min 0 min 0,0 UV-I 9 W/m 0,0 km/h (0 Bft)
26.07.2014 21:16 22,2 C 17,8 C 81 % 1013,2 hPa 0,0 l/m 0 min 0 min 0,0 UV-I 9 W/m 0,0 km/h (0 Bft)
26.07.2014 21:18 22,1 C 17,8 C 81 % 1013,2 hPa 0,0 l/m 0 min 0 min 0,0 UV-I 9 W/m 0,0 km/h (0 Bft)
26.07.2014 21:20 22,0 C 17,8 C 81 % 1013,2 hPa 0,0 l/m 0 min 0 min 0,0 UV-I 7 W/m 0,0 km/h (0 Bft)
26.07.2014 21:22 21,9 C 17,8 C 82 % 1013,2 hPa 0,0 l/m 0 min 0 min 0,0 UV-I 7 W/m 0,0 km/h (0 Bft)
26.07.2014 21:24 21,8 C 17,8 C 82 % 1013,3 hPa 0,0 l/m 0 min 0 min 0,0 UV-I 7 W/m 0,0 km/h (0 Bft)
26.07.2014 21:26 21,8 C 17,8 C 82 % 1013,3 hPa 0,0 l/m 0 min 0 min 0,0 UV-I 6 W/m 0,0 km/h (0 Bft)
26.07.2014 21:28 21,7 C 17,8 C 83 % 1013,3 hPa 0,0 l/m 0 min 0 min 0,0 UV-I 5 W/m 0,0 km/h (0 Bft)
26.07.2014 21:30 21,6 C 17,8 C 83 % 1013,4 hPa 0,0 l/m 0 min 0 min 0,0 UV-I 5 W/m 0,0 km/h (0 Bft)
26.07.2014 21:32 21,6 C 17,8 C 83 % 1013,3 hPa 0,0 l/m 0 min 0 min 0,0 UV-I 5 W/m 0,0 km/h (0 Bft)
26.07.2014 21:34 21,5 C 17,8 C 84 % 1013,4 hPa 0,0 l/m 0 min 0 min 0,0 UV-I 4 W/m 0,0 km/h (0 Bft)
26.07.2014 21:36 21,5 C 17,8 C 83 % 1013,4 hPa 0,0 l/m 0 min 0 min 0,0 UV-I 0 W/m 0,0 km/h (0 Bft)
26.07.2014 21:38 21,4 C 17,2 C 83 % 1013,4 hPa 0,0 l/m 0 min 0 min 0,0 UV-I 0 W/m 0,0 km/h (0 Bft)
26.07.2014 21:40 21,4 C 17,2 C 83 % 1013,4 hPa 0,0 l/m 0 min 0 min 0,0 UV-I 0 W/m 0,0 km/h (0 Bft)
26.07.2014 21:42 21,3 C 17,2 C 84 % 1013,5 hPa 0,0 l/m 0 min 0 min 0,0 UV-I 0 W/m 0,0 km/h (0 Bft)
26.07.2014 21:44 21,3 C 17,2 C 84 % 1013,5 hPa 0,0 l/m 0 min 0 min 0,0 UV-I 0 W/m 0,0 km/h (0 Bft)
26.07.2014 21:46 21,2 C 17,2 C 84 % 1013,5 hPa 0,0 l/m 0 min 0 min 0,0 UV-I 0 W/m 0,0 km/h (0 Bft)
26.07.2014 21:48 21,2 C 17,2 C 85 % 1013,5 hPa 0,0 l/m 0 min 0 min 0,0 UV-I 0 W/m 0,0 km/h (0 Bft)
26.07.2014 21:50 21,1 C 17,2 C 85 % 1013,5 hPa 0,0 l/m 0 min 0 min 0,0 UV-I 0 W/m 0,0 km/h (0 Bft)
26.07.2014 21:52 21,1 C 17,2 C 85 % 1013,5 hPa 0,0 l/m 0 min 0 min 0,0 UV-I 0 W/m 0,0 km/h (0 Bft)
26.07.2014 21:54 21,0 C 17,2 C 86 % 1013,6 hPa 0,0 l/m 0 min 0 min 0,0 UV-I 0 W/m 0,0 km/h (0 Bft)
26.07.2014 21:56 20,9 C 17,2 C 86 % 1013,6 hPa 0,0 l/m 0 min 0 min 0,0 UV-I 0 W/m 0,0 km/h (0 Bft)
26.07.2014 21:58 20,9 C 17,2 C 86 % 1013,6 hPa 0,0 l/m 0 min 0 min 0,0 UV-I 0 W/m 0,0 km/h (0 Bft)
26.07.2014 22:00 20,8 C 17,2 C 87 % 1013,6 hPa 0,0 l/m 0 min 0 min 0,0 UV-I 0 W/m 0,0 km/h (0 Bft)
26.07.2014 22:02 20,8 C 17,2 C 87 % 1013,7 hPa 0,0 l/m 0 min 0 min 0,0 UV-I 0 W/m 0,0 km/h (0 Bft)
26.07.2014 22:04 20,7 C 17,2 C 87 % 1013,7 hPa 0,0 l/m 0 min 0 min 0,0 UV-I 0 W/m 0,0 km/h (0 Bft)
26.07.2014 22:06 20,6 C 17,2 C 87 % 1013,7 hPa 0,0 l/m 0 min 0 min 0,0 UV-I 0 W/m 0,0 km/h (0 Bft)
26.07.2014 22:08 20,5 C 17,2 C 88 % 1013,7 hPa 0,0 l/m 0 min 0 min 0,0 UV-I 0 W/m 0,0 km/h (0 Bft)
26.07.2014 22:10 20,5 C 17,2 C 88 % 1013,7 hPa 0,0 l/m 0 min 0 min 0,0 UV-I 0 W/m 0,0 km/h (0 Bft)
26.07.2014 22:12 20,4 C 17,2 C 88 % 1013,7 hPa 0,0 l/m 0 min 0 min 0,0 UV-I 0 W/m 0,0 km/h (0 Bft)
26.07.2014 22:14 20,4 C 17,2 C 89 % 1013,8 hPa 0,0 l/m 0 min 0 min 0,0 UV-I 0 W/m 0,0 km/h (0 Bft)
26.07.2014 22:16 20,3 C 17,2 C 89 % 1013,8 hPa 0,0 l/m 0 min 0 min 0,0 UV-I 0 W/m 0,0 km/h (0 Bft)
26.07.2014 22:18 20,3 C 17,2 C 89 % 1013,8 hPa 0,0 l/m 0 min 0 min 0,0 UV-I 0 W/m 0,0 km/h (0 Bft)
26.07.2014 22:20 20,3 C 17,2 C 89 % 1013,8 hPa 0,0 l/m 0 min 0 min 0,0 UV-I 0 W/m 0,0 km/h (0 Bft)
26.07.2014 22:22 20,2 C 17,2 C 89 % 1013,8 hPa 0,0 l/m 0 min 0 min 0,0 UV-I 0 W/m 0,0 km/h (0 Bft)
26.07.2014 22:24 20,2 C 17,2 C 89 % 1013,9 hPa 0,0 l/m 0 min 0 min 0,0 UV-I 0 W/m 0,0 km/h (0 Bft)
26.07.2014 22:26 20,1 C 17,2 C 89 % 1013,9 hPa 0,0 l/m 0 min 0 min 0,0 UV-I 0 W/m 0,0 km/h (0 Bft)
26.07.2014 22:28 20,1 C 17,2 C 90 % 1013,9 hPa 0,0 l/m 0 min 0 min 0,0 UV-I 0 W/m 0,0 km/h (0 Bft)
26.07.2014 22:30 20,1 C 17,2 C 90 % 1013,9 hPa 0,0 l/m 0 min 0 min 0,0 UV-I 0 W/m 0,0 km/h (0 Bft)
26.07.2014 22:32 20,0 C 17,2 C 90 % 1013,9 hPa 0,0 l/m 0 min 0 min 0,0 UV-I 0 W/m 0,0 km/h (0 Bft)
26.07.2014 22:34 20,0 C 17,2 C 90 % 1013,9 hPa 0,0 l/m 0 min 0 min 0,0 UV-I 0 W/m 0,0 km/h (0 Bft)
26.07.2014 22:36 19,9 C 17,2 C 91 % 1014,0 hPa 0,0 l/m 0 min 0 min 0,0 UV-I 0 W/m 0,0 km/h (0 Bft)
26.07.2014 22:38 19,9 C 17,2 C 91 % 1014,0 hPa 0,0 l/m 0 min 0 min 0,0 UV-I 0 W/m 0,0 km/h (0 Bft)
26.07.2014 22:40 19,8 C 17,2 C 91 % 1014,0 hPa 0,0 l/m 0 min 0 min 0,0 UV-I 0 W/m 0,0 km/h (0 Bft)
26.07.2014 22:42 19,8 C 17,2 C 91 % 1014,0 hPa 0,0 l/m 0 min 0 min 0,0 UV-I 0 W/m 0,0 km/h (0 Bft)
26.07.2014 22:44 19,8 C 17,2 C 91 % 1014,0 hPa 0,0 l/m 0 min 0 min 0,0 UV-I 0 W/m 0,0 km/h (0 Bft)
26.07.2014 22:46 19,7 C 17,2 C 91 % 1014,1 hPa 0,0 l/m 0 min 0 min 0,0 UV-I 0 W/m 0,0 km/h (0 Bft)
26.07.2014 22:48 19,6 C 17,2 C 92 % 1014,0 hPa 0,0 l/m 0 min 0 min 0,0 UV-I 0 W/m 0,0 km/h (0 Bft)
26.07.2014 22:50 19,6 C 16,7 C 92 % 1014,0 hPa 0,0 l/m 0 min 0 min 0,0 UV-I 0 W/m 0,0 km/h (0 Bft)
26.07.2014 22:52 19,6 C 17,2 C 92 % 1014,1 hPa 0,0 l/m 0 min 0 min 0,0 UV-I 0 W/m 0,0 km/h (0 Bft)
26.07.2014 22:54 19,6 C 17,2 C 92 % 1014,1 hPa 0,0 l/m 0 min 0 min 0,0 UV-I 0 W/m 0,0 km/h (0 Bft)
26.07.2014 22:56 19,6 C 17,2 C 92 % 1014,1 hPa 0,0 l/m 0 min 0 min 0,0 UV-I 0 W/m 0,0 km/h (0 Bft)
26.07.2014 22:58 19,6 C 17,2 C 92 % 1014,1 hPa 0,0 l/m 0 min 0 min 0,0 UV-I 0 W/m 0,0 km/h (0 Bft)
26.07.2014 23:00 19,6 C 17,2 C 92 % 1014,1 hPa 0,0 l/m 0 min 0 min 0,0 UV-I 0 W/m 0,0 km/h (0 Bft)
26.07.2014 23:02 19,6 C 17,2 C 92 % 1014,1 hPa 0,0 l/m 0 min 0 min 0,0 UV-I 0 W/m 0,0 km/h (0 Bft)
26.07.2014 23:04 19,6 C 17,2 C 91 % 1014,1 hPa 0,0 l/m 0 min 0 min 0,0 UV-I 0 W/m 0,0 km/h (0 Bft)
26.07.2014 23:06 19,5 C 17,2 C 91 % 1014,1 hPa 0,0 l/m 0 min 0 min 0,0 UV-I 0 W/m 0,0 km/h (0 Bft)
26.07.2014 23:08 19,5 C 17,2 C 91 % 1014,2 hPa 0,0 l/m 0 min 0 min 0,0 UV-I 0 W/m 0,0 km/h (0 Bft)
26.07.2014 23:10 19,4 C 17,2 C 91 % 1014,2 hPa 0,0 l/m 0 min 0 min 0,0 UV-I 0 W/m 0,0 km/h (0 Bft)
26.07.2014 23:12 19,4 C 17,2 C 91 % 1014,2 hPa 0,0 l/m 0 min 0 min 0,0 UV-I 0 W/m 0,0 km/h (0 Bft)
26.07.2014 23:14 19,3 C 17,2 C 91 % 1014,2 hPa 0,0 l/m 0 min 0 min 0,0 UV-I 0 W/m 0,0 km/h (0 Bft)
26.07.2014 23:16 19,3 C 17,2 C 91 % 1014,2 hPa 0,0 l/m 0 min 0 min 0,0 UV-I 0 W/m 0,0 km/h (0 Bft)
26.07.2014 23:18 19,2 C 17,2 C 91 % 1014,2 hPa 0,0 l/m 0 min 0 min 0,0 UV-I 0 W/m 0,0 km/h (0 Bft)
26.07.2014 23:20 19,2 C 17,2 C 91 % 1014,2 hPa 0,0 l/m 0 min 0 min 0,0 UV-I 0 W/m 0,0 km/h (0 Bft)
26.07.2014 23:22 19,2 C 16,7 C 91 % 1014,2 hPa 0,0 l/m 0 min 0 min 0,0 UV-I 0 W/m 0,0 km/h (0 Bft)
26.07.2014 23:24 19,2 C 16,7 C 91 % 1014,2 hPa 0,0 l/m 0 min 0 min 0,0 UV-I 0 W/m 0,0 km/h (0 Bft)
26.07.2014 23:26 19,1 C 16,7 C 91 % 1014,2 hPa 0,0 l/m 0 min 0 min 0,0 UV-I 0 W/m 0,0 km/h (0 Bft)
26.07.2014 23:28 19,1 C 16,7 C 91 % 1014,1 hPa 0,0 l/m 0 min 0 min 0,0 UV-I 0 W/m 0,0 km/h (0 Bft)
26.07.2014 23:30 19,1 C 16,7 C 91 % 1014,1 hPa 0,0 l/m 0 min 0 min 0,0 UV-I 0 W/m 0,0 km/h (0 Bft)
26.07.2014 23:32 19,0 C 16,7 C 92 % 1014,1 hPa 0,0 l/m 0 min 0 min 0,0 UV-I 0 W/m 0,0 km/h (0 Bft)
26.07.2014 23:34 18,9 C 16,7 C 92 % 1014,2 hPa 0,0 l/m 0 min 0 min 0,0 UV-I 0 W/m 0,0 km/h (0 Bft)
26.07.2014 23:36 18,9 C 16,7 C 92 % 1014,2 hPa 0,0 l/m 0 min 0 min 0,0 UV-I 0 W/m 0,0 km/h (0 Bft)
26.07.2014 23:38 18,9 C 16,7 C 92 % 1014,2 hPa 0,0 l/m 0 min 0 min 0,0 UV-I 0 W/m 0,0 km/h (0 Bft)
26.07.2014 23:40 18,9 C 16,7 C 92 % 1014,2 hPa 0,0 l/m 0 min 0 min 0,0 UV-I 0 W/m 0,0 km/h (0 Bft)
26.07.2014 23:42 18,9 C 16,7 C 92 % 1014,2 hPa 0,0 l/m 0 min 0 min 0,0 UV-I 0 W/m 0,0 km/h (0 Bft)
26.07.2014 23:44 18,9 C 16,7 C 92 % 1014,2 hPa 0,0 l/m 0 min 0 min 0,0 UV-I 0 W/m 0,0 km/h (0 Bft)
26.07.2014 23:46 18,9 C 16,7 C 93 % 1014,2 hPa 0,0 l/m 0 min 0 min 0,0 UV-I 0 W/m 0,0 km/h (0 Bft)
26.07.2014 23:48 18,9 C 16,7 C 93 % 1014,2 hPa 0,0 l/m 0 min 0 min 0,0 UV-I 0 W/m 0,0 km/h (0 Bft)
26.07.2014 23:50 18,9 C 16,7 C 93 % 1014,2 hPa 0,0 l/m 0 min 0 min 0,0 UV-I 0 W/m 0,0 km/h (0 Bft)
26.07.2014 23:52 18,8 C 16,7 C 93 % 1014,2 hPa 0,0 l/m 0 min 0 min 0,0 UV-I 0 W/m 0,0 km/h (0 Bft)
26.07.2014 23:54 18,8 C 16,7 C 93 % 1014,2 hPa 0,0 l/m 0 min 0 min 0,0 UV-I 0 W/m 0,0 km/h (0 Bft)
26.07.2014 23:56 18,7 C 16,7 C 93 % 1014,2 hPa 0,0 l/m 0 min 0 min 0,0 UV-I 0 W/m 0,0 km/h (0 Bft)
26.07.2014 23:58 18,7 C 16,7 C 93 % 1014,2 hPa 0,0 l/m 0 min 0 min 0,0 UV-I 0 W/m 0,0 km/h (0 Bft)
_ Min-Zeit 04:32 03:26 14:56 04:15 - - - - - 00:00
Minimum _ 15,1 C 13,9 C 59 % 1012,6 hPa - - - - - 0,0 km/h (0 Bft)
_ Max-Zeit 17:06 16:30 07:16 12:14 00:00 11:50 00:00 13:54 13:52 15:28
Maximum _ 26,6 C 31,1 C 100 % 1014,2 hPa 0,0 l/m 2 min 0 min 4,7 UV-I 864 W/m 20,9 km/h
W-NW (4 Bft)
Durchschnitt _ 19,8 C 18,6 C 86 % 1013,2 hPa #0,0 l/m #5:48 h #0 min. 2,4 UV-I 271 W/m 3,8 km/h (1 Bft)
© 2014 W. Hausmann